Observation data for Palo Duro Canyon State Park Floor on 09/10/2017      Previous  Date       Current Mesonet Observations  Soil Data  Daily Summary Page  Observations in Plain Language
KPD2 100500Z 14003KT 20/09 A3021 RMK A01 T02020094  RH  050%=      5-min Rain = 0
KPD2 100501Z 13004KT 20/09 A3021 RMK A01 T02010093  RH  050%=      5-min Rain = 0
KPD2 100502Z 13004KT 20/09 A3021 RMK A01 T02020093  RH  050%=      5-min Rain = 0
KPD2 100503Z 12005KT 20/09 A3021 RMK A01 T02010093  RH  050%=      5-min Rain = 0
KPD2 100504Z 13004KT 20/09 A3021 RMK A01 T02010093  RH  050%=      5-min Rain = 0
KPD2 100505Z 14004KT 20/09 A3021 RMK A01 T02010093  RH  050%=      5-min Rain = 0
KPD2 100506Z 14004KT 20/09 A3021 RMK A01 T02010093  RH  050%=      5-min Rain = 0
KPD2 100507Z 13004KT 20/09 A3021 RMK A01 T02010093  RH  050%=      5-min Rain = 0
KPD2 100508Z 14004KT 20/09 A3021 RMK A01 T02010093  RH  050%=      5-min Rain = 0
KPD2 100509Z 13004KT 20/09 A3021 RMK A01 T02020093  RH  050%=      5-min Rain = 0
KPD2 100510Z 13004KT 20/09 A3021 RMK A01 T02020093  RH  050%=      5-min Rain = 0
KPD2 100511Z 14004KT 20/09 A3021 RMK A01 T02020093  RH  050%=      5-min Rain = 0
KPD2 100512Z 14003KT 20/09 A3021 RMK A01 T02020093  RH  050%=      5-min Rain = 0
KPD2 100513Z 13004KT 20/09 A3022 RMK A01 T02020093  RH  049%=      5-min Rain = 0
KPD2 100514Z 12004KT 20/09 A3022 RMK A01 T02020093  RH  050%=      5-min Rain = 0
KPD2 100515Z 13004KT 20/09 A3022 RMK A01 T02010093  RH  050%=      5-min Rain = 0
KPD2 100516Z 13004KT 20/09 A3022 RMK A01 T02000093  RH  050%=      5-min Rain = 0
KPD2 100517Z 13004KT 20/09 A3022 RMK A01 T02000092  RH  050%=      5-min Rain = 0
KPD2 100518Z 13003KT 20/09 A3022 RMK A01 T02000092  RH  050%=      5-min Rain = 0
KPD2 100519Z 13004KT 20/09 A3022 RMK A01 T02010093  RH  050%=      5-min Rain = 0
KPD2 100520Z 13004KT 20/09 A3022 RMK A01 T02000093  RH  050%=      5-min Rain = 0
KPD2 100521Z 14004KT 20/09 A3022 RMK A01 T02000093  RH  050%=      5-min Rain = 0
KPD2 100522Z 13004KT 20/09 A3022 RMK A01 T02000093  RH  050%=      5-min Rain = 0
KPD2 100523Z 13004KT 20/09 A3022 RMK A01 T02000092  RH  050%=      5-min Rain = 0
KPD2 100524Z 14004KT 20/09 A3022 RMK A01 T01990092  RH  050%=      5-min Rain = 0
KPD2 100525Z 14004KT 20/09 A3022 RMK A01 T01990092  RH  050%=      5-min Rain = 0
KPD2 100526Z 13004KT 20/09 A3022 RMK A01 T01990092  RH  050%=      5-min Rain = 0
KPD2 100527Z 14003KT 20/09 A3022 RMK A01 T01990092  RH  050%=      5-min Rain = 0
KPD2 100528Z 13004KT 20/09 A3022 RMK A01 T01980092  RH  050%=      5-min Rain = 0
KPD2 100529Z 14003KT 20/09 A3022 RMK A01 T01980092  RH  050%=      5-min Rain = 0
KPD2 100530Z 13004KT 20/09 A3022 RMK A01 T01980093  RH  051%=      5-min Rain = 0
KPD2 100531Z 14004KT 20/09 A3022 RMK A01 T01980093  RH  051%=      5-min Rain = 0
KPD2 100532Z 14004KT 20/09 A3022 RMK A01 T01980092  RH  051%=      5-min Rain = 0
KPD2 100533Z 14003KT 20/09 A3022 RMK A01 T01980092  RH  051%=      5-min Rain = 0
KPD2 100534Z 15004KT 20/09 A3022 RMK A01 T01970093  RH  051%=      5-min Rain = 0
KPD2 100535Z 14004KT 20/09 A3022 RMK A01 T01970093  RH  051%=      5-min Rain = 0
KPD2 100536Z 13004KT 20/09 A3022 RMK A01 T01970093  RH  051%=      5-min Rain = 0
KPD2 100537Z 13004KT 20/09 A3022 RMK A01 T01970093  RH  051%=      5-min Rain = 0
KPD2 100538Z 13004KT 20/09 A3022 RMK A01 T01960093  RH  051%=      5-min Rain = 0
KPD2 100539Z 13004KT 20/09 A3022 RMK A01 T01950093  RH  051%=      5-min Rain = 0
KPD2 100540Z 14004KT 19/09 A3022 RMK A01 T01940092  RH  052%=      5-min Rain = 0
KPD2 100541Z 13004KT 19/09 A3022 RMK A01 T01940092  RH  052%=      5-min Rain = 0
KPD2 100542Z 13004KT 20/09 A3022 RMK A01 T01950093  RH  052%=      5-min Rain = 0
KPD2 100543Z 14003KT 19/09 A3022 RMK A01 T01940092  RH  052%=      5-min Rain = 0
KPD2 100544Z 13003KT 20/09 A3022 RMK A01 T01950092  RH  051%=      5-min Rain = 0
KPD2 100545Z 13004KT 20/09 A3022 RMK A01 T01950092  RH  051%=      5-min Rain = 0
KPD2 100546Z 14004KT 20/09 A3022 RMK A01 T01950092  RH  051%=      5-min Rain = 0
KPD2 100547Z 14004KT 20/09 A3022 RMK A01 T01950092  RH  051%=      5-min Rain = 0
KPD2 100548Z 15004KT 20/09 A3022 RMK A01 T01960092  RH  051%=      5-min Rain = 0
KPD2 100549Z 16004KT 20/09 A3022 RMK A01 T01960092  RH  051%=      5-min Rain = 0
KPD2 100550Z 15005KT 20/09 A3022 RMK A01 T01960092  RH  051%=      5-min Rain = 0
KPD2 100551Z 15005KT 20/09 A3022 RMK A01 T01960092  RH  051%=      5-min Rain = 0
KPD2 100552Z 14005KT 20/09 A3022 RMK A01 T01970092  RH  051%=      5-min Rain = 0
KPD2 100553Z 14005KT 20/09 A3022 RMK A01 T01960092  RH  051%=      5-min Rain = 0
KPD2 100554Z 14005KT 20/09 A3022 RMK A01 T01970092  RH  051%=      5-min Rain = 0
KPD2 100555Z 14004KT 20/09 A3022 RMK A01 T01970092  RH  050%=      5-min Rain = 0
KPD2 100556Z 13003KT 20/09 A3022 RMK A01 T01970092  RH  050%=      5-min Rain = 0
KPD2 100557Z 13004KT 20/09 A3022 RMK A01 T01970092  RH  051%=      5-min Rain = 0
KPD2 100558Z 13004KT 20/09 A3022 RMK A01 T01950092  RH  051%=      5-min Rain = 0
KPD2 100559Z 13004KT 19/09 A3022 RMK A01 T01940092  RH  051%=      5-min Rain = 0
KPD2 100600Z 13004KT 19/09 A3022 RMK A01 T01930092  RH  052%=      5-min Rain = 0
KPD2 100601Z 13004KT 19/09 A3022 RMK A01 T01930092  RH  052%=      5-min Rain = 0
KPD2 100602Z 13004KT 19/09 A3022 RMK A01 T01910092  RH  052%=      5-min Rain = 0
KPD2 100603Z 13004KT 19/09 A3022 RMK A01 T01910092  RH  053%=      5-min Rain = 0
KPD2 100604Z 13004KT 19/09 A3022 RMK A01 T01900092  RH  053%=      5-min Rain = 0
KPD2 100605Z 13004KT 19/09 A3022 RMK A01 T01900092  RH  053%=      5-min Rain = 0
KPD2 100606Z 14004KT 19/09 A3022 RMK A01 T01890091  RH  053%=      5-min Rain = 0
KPD2 100607Z 13004KT 19/09 A3022 RMK A01 T01900092  RH  053%=      5-min Rain = 0
KPD2 100608Z 14004KT 19/09 A3022 RMK A01 T01900092  RH  053%=      5-min Rain = 0
KPD2 100609Z 13004KT 19/09 A3022 RMK A01 T01900091  RH  053%=      5-min Rain = 0
KPD2 100610Z 14005KT 19/09 A3022 RMK A01 T01910091  RH  052%=      5-min Rain = 0
KPD2 100611Z 13005KT 19/09 A3022 RMK A01 T01910091  RH  052%=      5-min Rain = 0
KPD2 100612Z 13005KT 19/09 A3022 RMK A01 T01910092  RH  052%=      5-min Rain = 0
KPD2 100613Z 13005KT 19/09 A3022 RMK A01 T01910091  RH  052%=      5-min Rain = 0
KPD2 100614Z 13005KT 19/09 A3022 RMK A01 T01910091  RH  052%=      5-min Rain = 0
KPD2 100615Z 13005KT 19/09 A3022 RMK A01 T01920091  RH  052%=      5-min Rain = 0
KPD2 100616Z 12004KT 19/09 A3022 RMK A01 T01920091  RH  052%=      5-min Rain = 0
KPD2 100617Z 13004KT 19/09 A3022 RMK A01 T01920091  RH  052%=      5-min Rain = 0
KPD2 100618Z 13005KT 19/09 A3022 RMK A01 T01910091  RH  052%=      5-min Rain = 0
KPD2 100619Z 13005KT 19/09 A3022 RMK A01 T01910090  RH  052%=      5-min Rain = 0
KPD2 100620Z 12004KT 19/09 A3022 RMK A01 T01920091  RH  052%=      5-min Rain = 0
KPD2 100621Z 13005KT 19/09 A3022 RMK A01 T01920091  RH  052%=      5-min Rain = 0
KPD2 100622Z 13004KT 19/09 A3022 RMK A01 T01920091  RH  052%=      5-min Rain = 0
KPD2 100623Z 13005KT 19/09 A3022 RMK A01 T01920091  RH  052%=      5-min Rain = 0
KPD2 100624Z 13005KT 19/09 A3022 RMK A01 T01920091  RH  052%=      5-min Rain = 0
KPD2 100625Z 13004KT 19/09 A3022 RMK A01 T01920091  RH  052%=      5-min Rain = 0
KPD2 100626Z 13004KT 19/09 A3022 RMK A01 T01910091  RH  052%=      5-min Rain = 0
KPD2 100627Z 14003KT 19/09 A3022 RMK A01 T01910091  RH  052%=      5-min Rain = 0
KPD2 100628Z 14004KT 19/09 A3022 RMK A01 T01910091  RH  052%=      5-min Rain = 0
KPD2 100629Z 14004KT 19/09 A3022 RMK A01 T01910091  RH  052%=      5-min Rain = 0
KPD2 100630Z 13005KT 19/09 A3022 RMK A01 T01910091  RH  052%=      5-min Rain = 0
KPD2 100631Z 13005KT 19/09 A3022 RMK A01 T01910091  RH  052%=      5-min Rain = 0
KPD2 100632Z 14006KT 19/09 A3022 RMK A01 T01910091  RH  052%=      5-min Rain = 0
KPD2 100633Z 14005KT 19/09 A3022 RMK A01 T01910091  RH  052%=      5-min Rain = 0
KPD2 100634Z 14005KT 19/09 A3022 RMK A01 T01910091  RH  052%=      5-min Rain = 0
KPD2 100635Z 14003KT 19/09 A3022 RMK A01 T01900092  RH  053%=      5-min Rain = 0
KPD2 100636Z 14003KT 19/09 A3022 RMK A01 T01890092  RH  053%=      5-min Rain = 0
KPD2 100637Z 14004KT 19/09 A3022 RMK A01 T01880092  RH  053%=      5-min Rain = 0
KPD2 100638Z 13004KT 19/09 A3022 RMK A01 T01880092  RH  054%=      5-min Rain = 0
KPD2 100639Z 13004KT 19/09 A3022 RMK A01 T01870092  RH  054%=      5-min Rain = 0
KPD2 100640Z 13005KT 19/09 A3022 RMK A01 T01860092  RH  054%=      5-min Rain = 0
KPD2 100641Z 12004KT 18/09 A3022 RMK A01 T01840092  RH  055%=      5-min Rain = 0
KPD2 100642Z 12004KT 18/09 A3023 RMK A01 T01830092  RH  055%=      5-min Rain = 0
KPD2 100643Z 12005KT 18/09 A3023 RMK A01 T01830092  RH  056%=      5-min Rain = 0
KPD2 100644Z 12004KT 18/09 A3023 RMK A01 T01820092  RH  056%=      5-min Rain = 0
KPD2 100645Z 13004KT 18/09 A3023 RMK A01 T01810092  RH  056%=      5-min Rain = 0
KPD2 100646Z 13004KT 18/09 A3023 RMK A01 T01800092  RH  056%=      5-min Rain = 0
KPD2 100647Z 13004KT 18/09 A3023 RMK A01 T01790092  RH  057%=      5-min Rain = 0
KPD2 100648Z 13005KT 18/09 A3023 RMK A01 T01780091  RH  057%=      5-min Rain = 0
KPD2 100649Z 13004KT 18/09 A3023 RMK A01 T01780092  RH  057%=      5-min Rain = 0
KPD2 100650Z 12004KT 18/09 A3023 RMK A01 T01770091  RH  057%=      5-min Rain = 0
KPD2 100651Z 12005KT 18/09 A3023 RMK A01 T01770092  RH  057%=      5-min Rain = 0
KPD2 100652Z 13006KT 18/09 A3023 RMK A01 T01760092  RH  058%=      5-min Rain = 0
KPD2 100653Z 13006KT 18/09 A3023 RMK A01 T01760091  RH  057%=      5-min Rain = 0
KPD2 100654Z 12005KT 18/09 A3023 RMK A01 T01770091  RH  057%=      5-min Rain = 0
KPD2 100655Z 12004KT 18/09 A3023 RMK A01 T01760091  RH  057%=      5-min Rain = 0
KPD2 100656Z 12005KT 18/09 A3023 RMK A01 T01770091  RH  057%=      5-min Rain = 0
KPD2 100657Z 13004KT 18/09 A3023 RMK A01 T01770091  RH  057%=      5-min Rain = 0
KPD2 100658Z 13004KT 18/09 A3023 RMK A01 T01770091  RH  057%=      5-min Rain = 0
KPD2 100659Z 13005KT 18/09 A3023 RMK A01 T01770091  RH  057%=      5-min Rain = 0
KPD2 100700Z 13005KT 18/09 A3023 RMK A01 T01770091  RH  057%=      5-min Rain = 0
KPD2 100701Z 13005KT 18/09 A3023 RMK A01 T01780091  RH  057%=      5-min Rain = 0
KPD2 100702Z 13006KT 18/09 A3022 RMK A01 T01780091  RH  057%=      5-min Rain = 0
KPD2 100703Z 13006KT 18/09 A3022 RMK A01 T01790092  RH  057%=      5-min Rain = 0
KPD2 100704Z 13005KT 18/09 A3022 RMK A01 T01790092  RH  057%=      5-min Rain = 0
KPD2 100705Z 13005KT 18/09 A3022 RMK A01 T01790091  RH  056%=      5-min Rain = 0
KPD2 100706Z 13005KT 18/09 A3022 RMK A01 T01790091  RH  056%=      5-min Rain = 0
KPD2 100707Z 12004KT 18/09 A3022 RMK A01 T01790092  RH  057%=      5-min Rain = 0
KPD2 100708Z 12004KT 18/09 A3022 RMK A01 T01790092  RH  057%=      5-min Rain = 0
KPD2 100709Z 13004KT 18/09 A3022 RMK A01 T01780092  RH  057%=      5-min Rain = 0
KPD2 100710Z 13004KT 18/09 A3022 RMK A01 T01780092  RH  057%=      5-min Rain = 0
KPD2 100711Z 14004KT 18/09 A3022 RMK A01 T01770092  RH  057%=      5-min Rain = 0
KPD2 100712Z 13004KT 18/09 A3022 RMK A01 T01770092  RH  057%=      5-min Rain = 0
KPD2 100713Z 12004KT 18/09 A3022 RMK A01 T01770092  RH  057%=      5-min Rain = 0
KPD2 100714Z 12004KT 18/09 A3022 RMK A01 T01770092  RH  057%=      5-min Rain = 0
KPD2 100715Z 13005KT 18/09 A3022 RMK A01 T01760092  RH  058%=      5-min Rain = 0
KPD2 100716Z 13005KT 18/09 A3022 RMK A01 T01760092  RH  058%=      5-min Rain = 0
KPD2 100717Z 13005KT 18/09 A3022 RMK A01 T01760092  RH  058%=      5-min Rain = 0
KPD2 100718Z 13006KT 18/09 A3022 RMK A01 T01750092  RH  058%=      5-min Rain = 0
KPD2 100719Z 13006KT 18/09 A3022 RMK A01 T01750092  RH  058%=      5-min Rain = 0
KPD2 100720Z 13006KT 18/09 A3022 RMK A01 T01760091  RH  058%=      5-min Rain = 0
KPD2 100721Z 13005KT 18/09 A3022 RMK A01 T01760092  RH  058%=      5-min Rain = 0
KPD2 100722Z 12005KT 18/09 A3022 RMK A01 T01760092  RH  058%=      5-min Rain = 0
KPD2 100723Z 12005KT 18/09 A3022 RMK A01 T01760092  RH  058%=      5-min Rain = 0
KPD2 100724Z 12005KT 18/09 A3022 RMK A01 T01760092  RH  058%=      5-min Rain = 0
KPD2 100725Z 12005KT 18/09 A3022 RMK A01 T01760092  RH  058%=      5-min Rain = 0
KPD2 100726Z 12004KT 18/09 A3022 RMK A01 T01750092  RH  058%=      5-min Rain = 0
KPD2 100727Z 12004KT 17/09 A3022 RMK A01 T01740092  RH  058%=      5-min Rain = 0
KPD2 100728Z 11004KT 17/09 A3022 RMK A01 T01740091  RH  058%=      5-min Rain = 0
KPD2 100729Z 11004KT 17/09 A3022 RMK A01 T01730092  RH  059%=      5-min Rain = 0
KPD2 100730Z 11004KT 17/09 A3022 RMK A01 T01730092  RH  059%=      5-min Rain = 0
KPD2 100731Z 12005KT 17/09 A3022 RMK A01 T01730092  RH  059%=      5-min Rain = 0
KPD2 100732Z 12005KT 17/09 A3022 RMK A01 T01730092  RH  059%=      5-min Rain = 0
KPD2 100733Z 12005KT 17/09 A3023 RMK A01 T01720092  RH  059%=      5-min Rain = 0
KPD2 100734Z 12004KT 17/09 A3023 RMK A01 T01720092  RH  059%=      5-min Rain = 0
KPD2 100735Z 12005KT 17/09 A3023 RMK A01 T01720092  RH  059%=      5-min Rain = 0
KPD2 100736Z 12005KT 17/09 A3023 RMK A01 T01720092  RH  059%=      5-min Rain = 0
KPD2 100737Z 12004KT 17/09 A3023 RMK A01 T01720092  RH  059%=      5-min Rain = 0
KPD2 100738Z 12004KT 17/09 A3023 RMK A01 T01720092  RH  059%=      5-min Rain = 0
KPD2 100739Z 12004KT 17/09 A3023 RMK A01 T01720092  RH  059%=      5-min Rain = 0
KPD2 100740Z 12004KT 17/09 A3023 RMK A01 T01720092  RH  059%=      5-min Rain = 0
KPD2 100741Z 11003KT 17/09 A3023 RMK A01 T01720092  RH  059%=      5-min Rain = 0
KPD2 100742Z 12003KT 17/09 A3023 RMK A01 T01710092  RH  060%=      5-min Rain = 0
KPD2 100743Z 12003KT 17/09 A3023 RMK A01 T01710092  RH  060%=      5-min Rain = 0
KPD2 100744Z 12003KT 17/09 A3023 RMK A01 T01710092  RH  060%=      5-min Rain = 0
KPD2 100745Z 12004KT 17/09 A3023 RMK A01 T01700092  RH  060%=      5-min Rain = 0
KPD2 100746Z 12004KT 17/09 A3023 RMK A01 T01700092  RH  060%=      5-min Rain = 0
KPD2 100747Z 12004KT 17/09 A3023 RMK A01 T01700092  RH  060%=      5-min Rain = 0
KPD2 100748Z 12003KT 17/09 A3023 RMK A01 T01700092  RH  060%=      5-min Rain = 0
KPD2 100749Z 12003KT 17/09 A3023 RMK A01 T01700092  RH  060%=      5-min Rain = 0
KPD2 100750Z 13004KT 17/09 A3023 RMK A01 T01700092  RH  060%=      5-min Rain = 0
KPD2 100751Z 12003KT 17/09 A3023 RMK A01 T01690092  RH  060%=      5-min Rain = 0
KPD2 100752Z 12003KT 17/09 A3023 RMK A01 T01700092  RH  060%=      5-min Rain = 0
KPD2 100753Z 12003KT 17/09 A3023 RMK A01 T01690092  RH  060%=      5-min Rain = 0
KPD2 100754Z 12003KT 17/09 A3023 RMK A01 T01690092  RH  060%=      5-min Rain = 0
KPD2 100755Z 12004KT 17/09 A3023 RMK A01 T01690092  RH  060%=      5-min Rain = 0
KPD2 100756Z 12003KT 17/09 A3023 RMK A01 T01690092  RH  060%=      5-min Rain = 0
KPD2 100757Z 12003KT 17/09 A3023 RMK A01 T01690092  RH  060%=      5-min Rain = 0
KPD2 100758Z 13003KT 17/09 A3023 RMK A01 T01690092  RH  060%=      5-min Rain = 0
KPD2 100759Z 12004KT 17/09 A3023 RMK A01 T01690092  RH  060%=      5-min Rain = 0
KPD2 100800Z 12003KT 17/09 A3023 RMK A01 T01690092  RH  060%=      5-min Rain = 0
KPD2 100801Z 13003KT 17/09 A3023 RMK A01 T01680091  RH  060%=      5-min Rain = 0
KPD2 100802Z 12004KT 17/09 A3023 RMK A01 T01680091  RH  060%=      5-min Rain = 0
KPD2 100803Z 13003KT 17/09 A3023 RMK A01 T01680092  RH  061%=      5-min Rain = 0
KPD2 100804Z 13004KT 17/09 A3023 RMK A01 T01680091  RH  061%=      5-min Rain = 0
KPD2 100805Z 13004KT 17/09 A3023 RMK A01 T01680092  RH  061%=      5-min Rain = 0
KPD2 100806Z 12004KT 17/09 A3023 RMK A01 T01670091  RH  061%=      5-min Rain = 0
KPD2 100807Z 12005KT 17/09 A3023 RMK A01 T01670092  RH  061%=      5-min Rain = 0
KPD2 100808Z 12004KT 17/09 A3022 RMK A01 T01670092  RH  061%=      5-min Rain = 0
KPD2 100809Z 12004KT 17/09 A3022 RMK A01 T01670091  RH  061%=      5-min Rain = 0
KPD2 100810Z 12005KT 17/09 A3022 RMK A01 T01670091  RH  061%=      5-min Rain = 0
KPD2 100811Z 12004KT 17/09 A3022 RMK A01 T01660091  RH  061%=      5-min Rain = 0
KPD2 100812Z 11004KT 17/09 A3022 RMK A01 T01660091  RH  061%=      5-min Rain = 0
KPD2 100813Z 13004KT 17/09 A3022 RMK A01 T01650091  RH  062%=      5-min Rain = 0
KPD2 100814Z 13005KT 17/09 A3022 RMK A01 T01650091  RH  062%=      5-min Rain = 0
KPD2 100815Z 12005KT 16/09 A3022 RMK A01 T01640092  RH  062%=      5-min Rain = 0
KPD2 100816Z 12003KT 16/09 A3022 RMK A01 T01640092  RH  062%=      5-min Rain = 0
KPD2 100817Z 13002KT 16/09 A3022 RMK A01 T01630091  RH  062%=      5-min Rain = 0
KPD2 100818Z 13004KT 16/09 A3023 RMK A01 T01630091  RH  063%=      5-min Rain = 0
KPD2 100819Z 12004KT 16/09 A3023 RMK A01 T01620091  RH  063%=      5-min Rain = 0
KPD2 100820Z 12003KT 16/09 A3023 RMK A01 T01620091  RH  063%=      5-min Rain = 0
KPD2 100821Z 12003KT 16/09 A3023 RMK A01 T01610091  RH  063%=      5-min Rain = 0
KPD2 100822Z 13003KT 16/09 A3023 RMK A01 T01610092  RH  063%=      5-min Rain = 0
KPD2 100823Z 13003KT 16/09 A3023 RMK A01 T01600091  RH  064%=      5-min Rain = 0
KPD2 100824Z 13004KT 16/09 A3023 RMK A01 T01600091  RH  064%=      5-min Rain = 0
KPD2 100825Z 13004KT 16/09 A3023 RMK A01 T01590091  RH  064%=      5-min Rain = 0
KPD2 100826Z 13004KT 16/09 A3023 RMK A01 T01590091  RH  064%=      5-min Rain = 0
KPD2 100827Z 12004KT 16/09 A3023 RMK A01 T01580091  RH  064%=      5-min Rain = 0
KPD2 100828Z 12004KT 16/09 A3023 RMK A01 T01580091  RH  064%=      5-min Rain = 0
KPD2 100829Z 12004KT 16/09 A3023 RMK A01 T01580092  RH  065%=      5-min Rain = 0
KPD2 100830Z 12004KT 16/09 A3022 RMK A01 T01580092  RH  065%=      5-min Rain = 0
KPD2 100831Z 12002KT 16/09 A3022 RMK A01 T01580091  RH  065%=      5-min Rain = 0
KPD2 100832Z 12003KT 16/09 A3022 RMK A01 T01580091  RH  065%=      5-min Rain = 0
KPD2 100833Z 12004KT 16/09 A3022 RMK A01 T01580092  RH  065%=      5-min Rain = 0
KPD2 100834Z 11004KT 16/09 A3022 RMK A01 T01580091  RH  065%=      5-min Rain = 0
KPD2 100835Z 11004KT 16/09 A3022 RMK A01 T01580091  RH  065%=      5-min Rain = 0
KPD2 100836Z 12003KT 16/09 A3022 RMK A01 T01580091  RH  065%=      5-min Rain = 0
KPD2 100837Z 10003KT 16/09 A3022 RMK A01 T01580091  RH  065%=      5-min Rain = 0
KPD2 100838Z 10003KT 16/09 A3022 RMK A01 T01570091  RH  065%=      5-min Rain = 0
KPD2 100839Z 11003KT 16/09 A3022 RMK A01 T01570092  RH  065%=      5-min Rain = 0
KPD2 100840Z 12003KT 16/09 A3022 RMK A01 T01570091  RH  065%=      5-min Rain = 0
KPD2 100841Z 13003KT 16/09 A3022 RMK A01 T01580091  RH  065%=      5-min Rain = 0
KPD2 100842Z 13004KT 16/09 A3022 RMK A01 T01590092  RH  064%=      5-min Rain = 0
KPD2 100843Z 12004KT 16/09 A3022 RMK A01 T01590092  RH  064%=      5-min Rain = 0
KPD2 100844Z 13003KT 16/09 A3022 RMK A01 T01600092  RH  064%=      5-min Rain = 0
KPD2 100845Z 12004KT 16/09 A3022 RMK A01 T01600092  RH  064%=      5-min Rain = 0
KPD2 100846Z 12004KT 16/09 A3022 RMK A01 T01600092  RH  064%=      5-min Rain = 0
KPD2 100847Z 13004KT 16/09 A3022 RMK A01 T01600092  RH  064%=      5-min Rain = 0
KPD2 100848Z 13004KT 16/09 A3022 RMK A01 T01600092  RH  064%=      5-min Rain = 0
KPD2 100849Z 13004KT 16/09 A3022 RMK A01 T01600091  RH  063%=      5-min Rain = 0
KPD2 100850Z 13004KT 16/09 A3022 RMK A01 T01610091  RH  063%=      5-min Rain = 0
KPD2 100851Z 13004KT 16/09 A3022 RMK A01 T01610091  RH  063%=      5-min Rain = 0
KPD2 100852Z 13005KT 16/09 A3022 RMK A01 T01610091  RH  063%=      5-min Rain = 0
KPD2 100853Z 13005KT 16/09 A3022 RMK A01 T01610091  RH  063%=      5-min Rain = 0
KPD2 100854Z 13004KT 16/09 A3022 RMK A01 T01610092  RH  063%=      5-min Rain = 0
KPD2 100855Z 13005KT 16/09 A3022 RMK A01 T01610092  RH  064%=      5-min Rain = 0
KPD2 100856Z 13005KT 16/09 A3022 RMK A01 T01610092  RH  064%=      5-min Rain = 0
KPD2 100857Z 13005KT 16/09 A3022 RMK A01 T01600092  RH  064%=      5-min Rain = 0
KPD2 100858Z 13005KT 16/09 A3022 RMK A01 T01600092  RH  064%=      5-min Rain = 0
KPD2 100859Z 13005KT 16/09 A3022 RMK A01 T01600092  RH  064%=      5-min Rain = 0
KPD2 100900Z 13005KT 16/09 A3022 RMK A01 T01600092  RH  064%=      5-min Rain = 0
KPD2 100901Z 12005KT 16/09 A3022 RMK A01 T01590092  RH  064%=      5-min Rain = 0
KPD2 100902Z 12005KT 16/09 A3023 RMK A01 T01590092  RH  064%=      5-min Rain = 0
KPD2 100903Z 12005KT 16/09 A3023 RMK A01 T01590092  RH  064%=      5-min Rain = 0
KPD2 100904Z 12004KT 16/09 A3023 RMK A01 T01590092  RH  064%=      5-min Rain = 0
KPD2 100905Z 13004KT 16/09 A3023 RMK A01 T01590092  RH  064%=      5-min Rain = 0
KPD2 100906Z 13004KT 16/09 A3023 RMK A01 T01590092  RH  064%=      5-min Rain = 0
KPD2 100907Z 13004KT 16/09 A3023 RMK A01 T01590092  RH  064%=      5-min Rain = 0
KPD2 100908Z 13004KT 16/09 A3023 RMK A01 T01590092  RH  064%=      5-min Rain = 0
KPD2 100909Z 14004KT 16/09 A3023 RMK A01 T01590092  RH  064%=      5-min Rain = 0
KPD2 100910Z 14005KT 16/09 A3023 RMK A01 T01590092  RH  064%=      5-min Rain = 0
KPD2 100911Z 14005KT 16/09 A3023 RMK A01 T01590092  RH  064%=      5-min Rain = 0
KPD2 100912Z 14004KT 16/09 A3023 RMK A01 T01590092  RH  064%=      5-min Rain = 0
KPD2 100913Z 14004KT 16/09 A3023 RMK A01 T01590092  RH  064%=      5-min Rain = 0
KPD2 100914Z 14003KT 16/09 A3023 RMK A01 T01590093  RH  065%=      5-min Rain = 0
KPD2 100915Z 14003KT 16/09 A3023 RMK A01 T01590093  RH  065%=      5-min Rain = 0
KPD2 100916Z 15002KT 16/09 A3023 RMK A01 T01580092  RH  065%=      5-min Rain = 0
KPD2 100917Z 15002KT 16/09 A3023 RMK A01 T01570092  RH  065%=      5-min Rain = 0
KPD2 100918Z 14003KT 16/09 A3022 RMK A01 T01560092  RH  066%=      5-min Rain = 0
KPD2 100919Z 14003KT 16/09 A3022 RMK A01 T01550092  RH  066%=      5-min Rain = 0
KPD2 100920Z 14002KT 16/09 A3022 RMK A01 T01550092  RH  066%=      5-min Rain = 0
KPD2 100921Z 14002KT 15/09 A3022 RMK A01 T01540092  RH  067%=      5-min Rain = 0
KPD2 100922Z 13001KT 15/09 A3022 RMK A01 T01530092  RH  067%=      5-min Rain = 0
KPD2 100923Z 13002KT 15/09 A3022 RMK A01 T01510091  RH  067%=      5-min Rain = 0
KPD2 100924Z 12003KT 15/09 A3022 RMK A01 T01500091  RH  068%=      5-min Rain = 0
KPD2 100925Z 12004KT 15/09 A3022 RMK A01 T01490091  RH  068%=      5-min Rain = 0
KPD2 100926Z 12003KT 15/09 A3022 RMK A01 T01480091  RH  068%=      5-min Rain = 0
KPD2 100927Z 12003KT 15/09 A3022 RMK A01 T01470090  RH  069%=      5-min Rain = 0
KPD2 100928Z 12003KT 15/09 A3022 RMK A01 T01460091  RH  069%=      5-min Rain = 0
KPD2 100929Z 13004KT 15/09 A3022 RMK A01 T01460091  RH  070%=      5-min Rain = 0
KPD2 100930Z 13004KT 15/09 A3022 RMK A01 T01450091  RH  070%=      5-min Rain = 0
KPD2 100931Z 14004KT 15/09 A3022 RMK A01 T01450091  RH  070%=      5-min Rain = 0
KPD2 100932Z 13004KT 14/09 A3022 RMK A01 T01440092  RH  071%=      5-min Rain = 0
KPD2 100933Z 13003KT 14/09 A3023 RMK A01 T01440092  RH  071%=      5-min Rain = 0
KPD2 100934Z 12003KT 14/09 A3023 RMK A01 T01440092  RH  071%=      5-min Rain = 0
KPD2 100935Z 13003KT 14/09 A3023 RMK A01 T01440092  RH  071%=      5-min Rain = 0
KPD2 100936Z 13003KT 14/09 A3023 RMK A01 T01440092  RH  071%=      5-min Rain = 0
KPD2 100937Z 14003KT 14/09 A3023 RMK A01 T01440092  RH  071%=      5-min Rain = 0
KPD2 100938Z 14003KT 14/09 A3023 RMK A01 T01440092  RH  071%=      5-min Rain = 0
KPD2 100939Z 13003KT 14/09 A3023 RMK A01 T01440091  RH  071%=      5-min Rain = 0
KPD2 100940Z 14002KT 14/09 A3023 RMK A01 T01440092  RH  071%=      5-min Rain = 0
KPD2 100941Z 15002KT 14/09 A3023 RMK A01 T01440092  RH  071%=      5-min Rain = 0
KPD2 100942Z 15002KT 14/09 A3023 RMK A01 T01440092  RH  071%=      5-min Rain = 0
KPD2 100943Z 16002KT 14/09 A3023 RMK A01 T01440092  RH  071%=      5-min Rain = 0
KPD2 100944Z 15002KT 14/09 A3023 RMK A01 T01440092  RH  071%=      5-min Rain = 0
KPD2 100945Z 15003KT 14/09 A3023 RMK A01 T01440092  RH  071%=      5-min Rain = 0
KPD2 100946Z 15003KT 14/09 A3023 RMK A01 T01440092  RH  071%=      5-min Rain = 0
KPD2 100947Z 15003KT 14/09 A3023 RMK A01 T01430091  RH  071%=      5-min Rain = 0
KPD2 100948Z 14003KT 14/09 A3023 RMK A01 T01440092  RH  071%=      5-min Rain = 0
KPD2 100949Z 14003KT 14/09 A3023 RMK A01 T01430092  RH  071%=      5-min Rain = 0
KPD2 100950Z 14003KT 14/09 A3023 RMK A01 T01430091  RH  071%=      5-min Rain = 0
KPD2 100951Z 13003KT 14/09 A3023 RMK A01 T01420091  RH  071%=      5-min Rain = 0
KPD2 100952Z 13003KT 14/09 A3023 RMK A01 T01420090  RH  071%=      5-min Rain = 0
KPD2 100953Z 12003KT 14/09 A3023 RMK A01 T01410091  RH  071%=      5-min Rain = 0
KPD2 100954Z 12003KT 14/09 A3023 RMK A01 T01410090  RH  072%=      5-min Rain = 0
KPD2 100955Z 11003KT 14/09 A3023 RMK A01 T01410090  RH  072%=      5-min Rain = 0
KPD2 100956Z 11003KT 14/09 A3023 RMK A01 T01400090  RH  072%=      5-min Rain = 0
KPD2 100957Z 10003KT 14/09 A3023 RMK A01 T01400091  RH  072%=      5-min Rain = 0
KPD2 100958Z 11004KT 14/09 A3023 RMK A01 T01400091  RH  072%=      5-min Rain = 0
KPD2 100959Z 10003KT 14/09 A3023 RMK A01 T01410091  RH  072%=      5-min Rain = 0
KPD2 101000Z 10003KT 14/09 A3023 RMK A01 T01420092  RH  072%=      5-min Rain = 0
KPD2 101001Z 09003KT 14/09 A3023 RMK A01 T01440093  RH  071%=      5-min Rain = 0
KPD2 101002Z 09003KT 15/09 A3023 RMK A01 T01460093  RH  070%=      5-min Rain = 0
KPD2 101003Z 10003KT 15/09 A3023 RMK A01 T01480093  RH  070%=      5-min Rain = 0
KPD2 101004Z 09003KT 15/09 A3023 RMK A01 T01490093  RH  069%=      5-min Rain = 0
KPD2 101005Z 09003KT 15/09 A3023 RMK A01 T01510093  RH  069%=      5-min Rain = 0
KPD2 101006Z 10003KT 15/09 A3023 RMK A01 T01510093  RH  068%=      5-min Rain = 0
KPD2 101007Z 11002KT 15/09 A3023 RMK A01 T01520094  RH  068%=      5-min Rain = 0
KPD2 101008Z 12003KT 15/09 A3023 RMK A01 T01530094  RH  068%=      5-min Rain = 0
KPD2 101009Z 11003KT 15/09 A3023 RMK A01 T01530093  RH  068%=      5-min Rain = 0
KPD2 101010Z 11002KT 15/09 A3023 RMK A01 T01530093  RH  067%=      5-min Rain = 0
KPD2 101011Z 10003KT 15/09 A3023 RMK A01 T01530093  RH  067%=      5-min Rain = 0
KPD2 101012Z 11002KT 15/09 A3023 RMK A01 T01530093  RH  067%=      5-min Rain = 0
KPD2 101013Z 10002KT 15/09 A3023 RMK A01 T01530093  RH  067%=      5-min Rain = 0
KPD2 101014Z 09004KT 15/09 A3023 RMK A01 T01530094  RH  068%=      5-min Rain = 0
KPD2 101015Z 10003KT 15/09 A3024 RMK A01 T01530094  RH  068%=      5-min Rain = 0
KPD2 101016Z 11003KT 15/09 A3024 RMK A01 T01530094  RH  068%=      5-min Rain = 0
KPD2 101017Z 10004KT 15/09 A3024 RMK A01 T01530094  RH  068%=      5-min Rain = 0
KPD2 101018Z 11003KT 15/09 A3024 RMK A01 T01530094  RH  068%=      5-min Rain = 0
KPD2 101019Z 10004KT 15/09 A3024 RMK A01 T01530094  RH  068%=      5-min Rain = 0
KPD2 101020Z 10004KT 15/10 A3024 RMK A01 T01540095  RH  068%=      5-min Rain = 0
KPD2 101021Z 10005KT 15/10 A3024 RMK A01 T01540095  RH  068%=      5-min Rain = 0
KPD2 101022Z 11004KT 16/10 A3024 RMK A01 T01550096  RH  068%=      5-min Rain = 0
KPD2 101023Z 10005KT 16/10 A3024 RMK A01 T01550096  RH  068%=      5-min Rain = 0
KPD2 101024Z 11003KT 16/10 A3024 RMK A01 T01560096  RH  068%=      5-min Rain = 0
KPD2 101025Z 11003KT 16/10 A3024 RMK A01 T01560096  RH  067%=      5-min Rain = 0
KPD2 101026Z 11002KT 16/10 A3024 RMK A01 T01560096  RH  067%=      5-min Rain = 0
KPD2 101027Z 11003KT 16/10 A3024 RMK A01 T01570096  RH  067%=      5-min Rain = 0
KPD2 101028Z 13002KT 16/10 A3024 RMK A01 T01570095  RH  067%=      5-min Rain = 0
KPD2 101029Z 14003KT 16/10 A3024 RMK A01 T01570095  RH  066%=      5-min Rain = 0
KPD2 101030Z 13002KT 16/09 A3024 RMK A01 T01560094  RH  066%=      5-min Rain = 0
KPD2 101031Z 12002KT 16/09 A3024 RMK A01 T01550094  RH  067%=      5-min Rain = 0
KPD2 101032Z 14002KT 15/09 A3024 RMK A01 T01540094  RH  067%=      5-min Rain = 0
KPD2 101033Z 13002KT 15/09 A3024 RMK A01 T01530093  RH  067%=      5-min Rain = 0
KPD2 101034Z 11002KT 15/09 A3024 RMK A01 T01530093  RH  068%=      5-min Rain = 0
KPD2 101035Z 13003KT 15/09 A3024 RMK A01 T01510093  RH  068%=      5-min Rain = 0
KPD2 101036Z 13003KT 15/09 A3024 RMK A01 T01500092  RH  068%=      5-min Rain = 0
KPD2 101037Z 13004KT 15/09 A3024 RMK A01 T01490091  RH  068%=      5-min Rain = 0
KPD2 101038Z 13003KT 15/09 A3024 RMK A01 T01480091  RH  069%=      5-min Rain = 0
KPD2 101039Z 12003KT 15/09 A3024 RMK A01 T01460091  RH  069%=      5-min Rain = 0
KPD2 101040Z 12004KT 15/09 A3024 RMK A01 T01450090  RH  070%=      5-min Rain = 0
KPD2 101041Z 12003KT 14/09 A3024 RMK A01 T01440090  RH  070%=      5-min Rain = 0
KPD2 101042Z 13003KT 14/09 A3024 RMK A01 T01430090  RH  071%=      5-min Rain = 0
KPD2 101043Z 13003KT 14/09 A3024 RMK A01 T01420091  RH  071%=      5-min Rain = 0
KPD2 101044Z 13004KT 14/09 A3024 RMK A01 T01420091  RH  071%=      5-min Rain = 0
KPD2 101045Z 14003KT 14/09 A3024 RMK A01 T01420092  RH  072%=      5-min Rain = 0
KPD2 101046Z 13003KT 14/09 A3024 RMK A01 T01430092  RH  071%=      5-min Rain = 0
KPD2 101047Z 13003KT 14/09 A3024 RMK A01 T01430092  RH  071%=      5-min Rain = 0
KPD2 101048Z 13003KT 14/09 A3024 RMK A01 T01420092  RH  071%=      5-min Rain = 0
KPD2 101049Z 12003KT 14/09 A3024 RMK A01 T01420092  RH  072%=      5-min Rain = 0
KPD2 101050Z 13003KT 14/09 A3024 RMK A01 T01420092  RH  072%=      5-min Rain = 0
KPD2 101051Z 12003KT 14/09 A3024 RMK A01 T01420092  RH  072%=      5-min Rain = 0
KPD2 101052Z 12003KT 14/09 A3024 RMK A01 T01420092  RH  072%=      5-min Rain = 0
KPD2 101053Z 12003KT 14/09 A3024 RMK A01 T01420092  RH  072%=      5-min Rain = 0
KPD2 101054Z 13003KT 14/09 A3024 RMK A01 T01420092  RH  072%=      5-min Rain = 0
KPD2 101055Z 13003KT 14/09 A3024 RMK A01 T01420092  RH  072%=      5-min Rain = 0
KPD2 101056Z 14003KT 14/09 A3024 RMK A01 T01420092  RH  072%=      5-min Rain = 0
KPD2 101057Z 14003KT 14/09 A3024 RMK A01 T01420092  RH  072%=      5-min Rain = 0
KPD2 101058Z 15003KT 14/09 A3024 RMK A01 T01420092  RH  072%=      5-min Rain = 0
KPD2 101059Z 15003KT 14/09 A3024 RMK A01 T01420092  RH  072%=      5-min Rain = 0
KPD2 101100Z 14003KT 14/09 A3025 RMK A01 T01420092  RH  072%=      5-min Rain = 0
KPD2 101101Z 14002KT 14/09 A3025 RMK A01 T01420092  RH  072%=      5-min Rain = 0
KPD2 101102Z 13002KT 14/09 A3025 RMK A01 T01420092  RH  072%=      5-min Rain = 0
KPD2 101103Z 13002KT 14/09 A3025 RMK A01 T01410091  RH  072%=      5-min Rain = 0
KPD2 101104Z 12002KT 14/09 A3025 RMK A01 T01400091  RH  072%=      5-min Rain = 0
KPD2 101105Z 12003KT 14/09 A3025 RMK A01 T01400091  RH  072%=      5-min Rain = 0
KPD2 101106Z 13003KT 14/09 A3025 RMK A01 T01390090  RH  073%=      5-min Rain = 0
KPD2 101107Z 12003KT 14/09 A3025 RMK A01 T01380091  RH  073%=      5-min Rain = 0
KPD2 101108Z 13003KT 14/09 A3025 RMK A01 T01380091  RH  073%=      5-min Rain = 0
KPD2 101109Z 14003KT 14/09 A3025 RMK A01 T01380091  RH  073%=      5-min Rain = 0
KPD2 101110Z 14003KT 14/09 A3025 RMK A01 T01380091  RH  073%=      5-min Rain = 0
KPD2 101111Z 13002KT 14/09 A3025 RMK A01 T01380091  RH  073%=      5-min Rain = 0
KPD2 101112Z 13002KT 14/09 A3025 RMK A01 T01380091  RH  073%=      5-min Rain = 0
KPD2 101113Z 11002KT 14/09 A3025 RMK A01 T01380091  RH  073%=      5-min Rain = 0
KPD2 101114Z 11002KT 14/09 A3025 RMK A01 T01380091  RH  074%=      5-min Rain = 0
KPD2 101115Z 11002KT 14/09 A3025 RMK A01 T01380091  RH  074%=      5-min Rain = 0
KPD2 101116Z 11002KT 14/09 A3025 RMK A01 T01370091  RH  074%=      5-min Rain = 0
KPD2 101117Z 11002KT 14/09 A3025 RMK A01 T01370091  RH  074%=      5-min Rain = 0
KPD2 101118Z 11003KT 14/09 A3025 RMK A01 T01370091  RH  074%=      5-min Rain = 0
KPD2 101119Z 12002KT 14/09 A3025 RMK A01 T01370092  RH  074%=      5-min Rain = 0
KPD2 101120Z 13002KT 14/09 A3025 RMK A01 T01370091  RH  074%=      5-min Rain = 0
KPD2 101121Z 12002KT 14/09 A3025 RMK A01 T01370091  RH  074%=      5-min Rain = 0
KPD2 101122Z 14001KT 14/09 A3025 RMK A01 T01360090  RH  074%=      5-min Rain = 0
KPD2 101123Z 16002KT 14/09 A3025 RMK A01 T01350090  RH  074%=      5-min Rain = 0
KPD2 101124Z 15002KT 13/09 A3025 RMK A01 T01340090  RH  074%=      5-min Rain = 0
KPD2 101125Z 14002KT 13/09 A3025 RMK A01 T01340090  RH  075%=      5-min Rain = 0
KPD2 101126Z 12000KT 13/09 A3025 RMK A01 T01330091  RH  075%=      5-min Rain = 0
KPD2 101127Z 09000KT 13/09 A3025 RMK A01 T01320091  RH  076%=      5-min Rain = 0
KPD2 101128Z 11000KT 13/09 A3025 RMK A01 T01320091  RH  076%=      5-min Rain = 0
KPD2 101129Z 19001KT 13/09 A3025 RMK A01 T01320091  RH  076%=      5-min Rain = 0
KPD2 101130Z 20001KT 13/09 A3025 RMK A01 T01330091  RH  076%=      5-min Rain = 0
KPD2 101131Z 19001KT 13/09 A3025 RMK A01 T01320091  RH  076%=      5-min Rain = 0
KPD2 101132Z 19002KT 13/09 A3025 RMK A01 T01320091  RH  076%=      5-min Rain = 0
KPD2 101133Z 19001KT 13/09 A3025 RMK A01 T01310090  RH  076%=      5-min Rain = 0
KPD2 101134Z 14000KT 13/09 A3025 RMK A01 T01310091  RH  077%=      5-min Rain = 0
KPD2 101135Z 14001KT 13/09 A3025 RMK A01 T01310091  RH  077%=      5-min Rain = 0
KPD2 101136Z 09002KT 13/09 A3025 RMK A01 T01310091  RH  077%=      5-min Rain = 0
KPD2 101137Z 10002KT 13/09 A3025 RMK A01 T01310091  RH  077%=      5-min Rain = 0
KPD2 101138Z 13003KT 13/09 A3025 RMK A01 T01310091  RH  077%=      5-min Rain = 0
KPD2 101139Z 12004KT 13/09 A3025 RMK A01 T01310091  RH  077%=      5-min Rain = 0
KPD2 101140Z 16004KT 13/09 A3025 RMK A01 T01310092  RH  077%=      5-min Rain = 0
KPD2 101141Z 14004KT 13/09 A3025 RMK A01 T01330092  RH  077%=      5-min Rain = 0
KPD2 101142Z 12002KT 13/09 A3025 RMK A01 T01330092  RH  076%=      5-min Rain = 0
KPD2 101143Z 13003KT 13/09 A3025 RMK A01 T01330092  RH  076%=      5-min Rain = 0
KPD2 101144Z 12003KT 13/09 A3025 RMK A01 T01330092  RH  076%=      5-min Rain = 0
KPD2 101145Z 12004KT 13/09 A3025 RMK A01 T01330092  RH  076%=      5-min Rain = 0
KPD2 101146Z 13003KT 13/09 A3025 RMK A01 T01330094  RH  077%=      5-min Rain = 0
KPD2 101147Z 13004KT 14/10 A3025 RMK A01 T01350096  RH  077%=      5-min Rain = 0
KPD2 101148Z 15003KT 14/10 A3025 RMK A01 T01390096  RH  075%=      5-min Rain = 0
KPD2 101149Z 12005KT 14/10 A3025 RMK A01 T01400095  RH  074%=      5-min Rain = 0
KPD2 101150Z 12004KT 14/10 A3025 RMK A01 T01400095  RH  074%=      5-min Rain = 0
KPD2 101151Z 11003KT 14/10 A3025 RMK A01 T01410096  RH  074%=      5-min Rain = 0
KPD2 101152Z 10004KT 14/10 A3025 RMK A01 T01420097  RH  074%=      5-min Rain = 0
KPD2 101153Z 12003KT 14/10 A3025 RMK A01 T01430098  RH  074%=      5-min Rain = 0
KPD2 101154Z 14003KT 15/10 A3025 RMK A01 T01460099  RH  073%=      5-min Rain = 0
KPD2 101155Z 13004KT 15/10 A3025 RMK A01 T01470096  RH  071%=      5-min Rain = 0
KPD2 101156Z 12004KT 15/10 A3025 RMK A01 T01460096  RH  072%=      5-min Rain = 0
KPD2 101157Z 11005KT 15/10 A3025 RMK A01 T01460097  RH  072%=      5-min Rain = 0
KPD2 101158Z 12004KT 15/10 A3025 RMK A01 T01470098  RH  072%=      5-min Rain = 0
KPD2 101159Z 12005KT 15/10 A3025 RMK A01 T01490099  RH  072%=      5-min Rain = 0
KPD2 101200Z 12003KT 15/10 A3026 RMK A01 T01510099  RH  071%=      5-min Rain = 0
KPD2 101201Z 11004KT 15/10 A3026 RMK A01 T01520098  RH  070%=      5-min Rain = 0
KPD2 101202Z 12003KT 15/10 A3026 RMK A01 T01520098  RH  070%=      5-min Rain = 0
KPD2 101203Z 12005KT 15/10 A3026 RMK A01 T01530099  RH  070%=      5-min Rain = 0
KPD2 101204Z 11005KT 15/10 A3026 RMK A01 T01530098  RH  070%=      5-min Rain = 0
KPD2 101205Z 13004KT 15/10 A3026 RMK A01 T01540099  RH  070%=      5-min Rain = 0
KPD2 101206Z 12003KT 16/10 A3026 RMK A01 T01550099  RH  069%=      5-min Rain = 0
KPD2 101207Z 11004KT 16/10 A3026 RMK A01 T01560098  RH  069%=      5-min Rain = 0
KPD2 101208Z 10004KT 16/10 A3026 RMK A01 T01560098  RH  069%=      5-min Rain = 0
KPD2 101209Z 09004KT 16/10 A3026 RMK A01 T01560099  RH  069%=      5-min Rain = 0
KPD2 101210Z 11004KT 16/10 A3026 RMK A01 T01550098  RH  069%=      5-min Rain = 0
KPD2 101211Z 12004KT 16/10 A3026 RMK A01 T01550098  RH  069%=      5-min Rain = 0
KPD2 101212Z 11004KT 15/10 A3026 RMK A01 T01540099  RH  069%=      5-min Rain = 0
KPD2 101213Z 12003KT 15/10 A3026 RMK A01 T01540099  RH  069%=      5-min Rain = 0
KPD2 101214Z 11003KT 16/10 A3026 RMK A01 T01550099  RH  069%=      5-min Rain = 0
KPD2 101215Z 13003KT 16/10 A3026 RMK A01 T01550098  RH  069%=      5-min Rain = 0
KPD2 101216Z 14005KT 16/10 A3026 RMK A01 T01550098  RH  069%=      5-min Rain = 0
KPD2 101217Z 12004KT 16/10 A3026 RMK A01 T01550098  RH  069%=      5-min Rain = 0
KPD2 101218Z 14004KT 16/10 A3026 RMK A01 T01550098  RH  069%=      5-min Rain = 0
KPD2 101219Z 12003KT 15/10 A3026 RMK A01 T01540097  RH  068%=      5-min Rain = 0
KPD2 101220Z 11004KT 15/10 A3026 RMK A01 T01520096  RH  069%=      5-min Rain = 0
KPD2 101221Z 13005KT 15/10 A3026 RMK A01 T01500095  RH  070%=      5-min Rain = 0
KPD2 101222Z 12005KT 15/09 A3026 RMK A01 T01480094  RH  070%=      5-min Rain = 0
KPD2 101223Z 12005KT 15/10 A3026 RMK A01 T01470095  RH  071%=      5-min Rain = 0
KPD2 101224Z 12005KT 15/10 A3026 RMK A01 T01460095  RH  071%=      5-min Rain = 0
KPD2 101225Z 12004KT 14/09 A3026 RMK A01 T01440094  RH  072%=      5-min Rain = 0
KPD2 101226Z 12004KT 14/09 A3026 RMK A01 T01440094  RH  072%=      5-min Rain = 0
KPD2 101227Z 12003KT 14/09 A3026 RMK A01 T01430094  RH  072%=      5-min Rain = 0
KPD2 101228Z 13003KT 14/10 A3026 RMK A01 T01430095  RH  073%=      5-min Rain = 0
KPD2 101229Z 14003KT 14/10 A3026 RMK A01 T01430096  RH  073%=      5-min Rain = 0
KPD2 101230Z 12003KT 14/10 A3026 RMK A01 T01430096  RH  073%=      5-min Rain = 0
KPD2 101231Z 13003KT 14/10 A3026 RMK A01 T01440096  RH  073%=      5-min Rain = 0
KPD2 101232Z 13003KT 15/10 A3026 RMK A01 T01450096  RH  072%=      5-min Rain = 0
KPD2 101233Z 12003KT 15/10 A3027 RMK A01 T01460096  RH  072%=      5-min Rain = 0
KPD2 101234Z 12003KT 15/10 A3027 RMK A01 T01460096  RH  072%=      5-min Rain = 0
KPD2 101235Z 13003KT 15/10 A3027 RMK A01 T01460096  RH  072%=      5-min Rain = 0
KPD2 101236Z 13004KT 15/10 A3027 RMK A01 T01460096  RH  072%=      5-min Rain = 0
KPD2 101237Z 14004KT 15/10 A3027 RMK A01 T01460096  RH  072%=      5-min Rain = 0
KPD2 101238Z 14003KT 15/10 A3027 RMK A01 T01470096  RH  072%=      5-min Rain = 0
KPD2 101239Z 15005KT 15/10 A3027 RMK A01 T01470097  RH  072%=      5-min Rain = 0
KPD2 101240Z 13003KT 15/10 A3027 RMK A01 T01480097  RH  072%=      5-min Rain = 0
KPD2 101241Z 11002KT 15/10 A3027 RMK A01 T01480097  RH  071%=      5-min Rain = 0
KPD2 101242Z 11004KT 15/10 A3027 RMK A01 T01480097  RH  071%=      5-min Rain = 0
KPD2 101243Z 14003KT 15/10 A3027 RMK A01 T01480097  RH  071%=      5-min Rain = 0
KPD2 101244Z 12003KT 15/10 A3027 RMK A01 T01480097  RH  071%=      5-min Rain = 0
KPD2 101245Z 12003KT 15/10 A3027 RMK A01 T01490097  RH  071%=      5-min Rain = 0
KPD2 101246Z 14003KT 15/10 A3027 RMK A01 T01480096  RH  071%=      5-min Rain = 0
KPD2 101247Z 13003KT 15/10 A3027 RMK A01 T01480097  RH  071%=      5-min Rain = 0
KPD2 101248Z 13003KT 15/10 A3027 RMK A01 T01490097  RH  071%=      5-min Rain = 0
KPD2 101249Z 13004KT 15/10 A3027 RMK A01 T01480097  RH  071%=      5-min Rain = 0
KPD2 101250Z 14003KT 15/10 A3027 RMK A01 T01490098  RH  072%=      5-min Rain = 0
KPD2 101251Z 13003KT 15/10 A3027 RMK A01 T01480098  RH  072%=      5-min Rain = 0
KPD2 101252Z 15003KT 15/10 A3027 RMK A01 T01490098  RH  072%=      5-min Rain = 0
KPD2 101253Z 13003KT 15/10 A3027 RMK A01 T01500098  RH  071%=      5-min Rain = 0
KPD2 101254Z 12004KT 15/10 A3027 RMK A01 T01490097  RH  071%=      5-min Rain = 0
KPD2 101255Z 13005KT 15/10 A3027 RMK A01 T01490097  RH  071%=      5-min Rain = 0
KPD2 101256Z 12004KT 15/10 A3027 RMK A01 T01490097  RH  071%=      5-min Rain = 0
KPD2 101257Z 13004KT 15/10 A3027 RMK A01 T01480097  RH  071%=      5-min Rain = 0
KPD2 101258Z 12005KT 15/10 A3027 RMK A01 T01480097  RH  071%=      5-min Rain = 0
KPD2 101259Z 12004KT 15/10 A3027 RMK A01 T01490097  RH  071%=      5-min Rain = 0
KPD2 101300Z 12003KT 15/10 A3027 RMK A01 T01480097  RH  071%=      5-min Rain = 0
KPD2 101301Z 12004KT 15/10 A3027 RMK A01 T01480097  RH  072%=      5-min Rain = 0
KPD2 101302Z 12003KT 15/10 A3027 RMK A01 T01480097  RH  071%=      5-min Rain = 0
KPD2 101303Z 13003KT 15/10 A3027 RMK A01 T01480097  RH  071%=      5-min Rain = 0
KPD2 101304Z 12004KT 15/10 A3027 RMK A01 T01490098  RH  071%=      5-min Rain = 0
KPD2 101305Z 13004KT 15/10 A3027 RMK A01 T01490098  RH  071%=      5-min Rain = 0
KPD2 101306Z 12003KT 15/10 A3027 RMK A01 T01500098  RH  071%=      5-min Rain = 0
KPD2 101307Z 13002KT 15/10 A3027 RMK A01 T01510099  RH  071%=      5-min Rain = 0
KPD2 101308Z 13004KT 15/10 A3027 RMK A01 T01510099  RH  071%=      5-min Rain = 0
KPD2 101309Z 12004KT 15/10 A3027 RMK A01 T01520100  RH  071%=      5-min Rain = 0
KPD2 101310Z 12004KT 15/10 A3027 RMK A01 T01520100  RH  071%=      5-min Rain = 0
KPD2 101311Z 14005KT 15/10 A3027 RMK A01 T01530101  RH  071%=      5-min Rain = 0
KPD2 101312Z 13005KT 16/10 A3027 RMK A01 T01560101  RH  070%=      5-min Rain = 0
KPD2 101313Z 12004KT 16/10 A3027 RMK A01 T01570101  RH  069%=      5-min Rain = 0
KPD2 101314Z 12003KT 16/10 A3027 RMK A01 T01590101  RH  069%=      5-min Rain = 0
KPD2 101315Z 11003KT 16/10 A3028 RMK A01 T01600102  RH  068%=      5-min Rain = 0
KPD2 101316Z 11004KT 16/10 A3028 RMK A01 T01600102  RH  068%=      5-min Rain = 0
KPD2 101317Z 10005KT 16/10 A3028 RMK A01 T01610102  RH  068%=      5-min Rain = 0
KPD2 101318Z 10004KT 16/10 A3028 RMK A01 T01620102  RH  068%=      5-min Rain = 0
KPD2 101319Z 10005KT 16/10 A3028 RMK A01 T01620102  RH  068%=      5-min Rain = 0
KPD2 101320Z 10006KT 16/10 A3028 RMK A01 T01620102  RH  067%=      5-min Rain = 0
KPD2 101321Z 10005KT 16/10 A3028 RMK A01 T01630102  RH  067%=      5-min Rain = 0
KPD2 101322Z 11005KT 16/10 A3028 RMK A01 T01640102  RH  067%=      5-min Rain = 0
KPD2 101323Z 11005KT 17/10 A3028 RMK A01 T01650102  RH  066%=      5-min Rain = 0
KPD2 101324Z 10004KT 17/10 A3028 RMK A01 T01660102  RH  066%=      5-min Rain = 0
KPD2 101325Z 11003KT 17/10 A3028 RMK A01 T01670103  RH  066%=      5-min Rain = 0
KPD2 101326Z 11005KT 17/10 A3028 RMK A01 T01670103  RH  066%=      5-min Rain = 0
KPD2 101327Z 11004KT 17/10 A3028 RMK A01 T01680103  RH  065%=      5-min Rain = 0
KPD2 101328Z 10004KT 17/10 A3028 RMK A01 T01690103  RH  065%=      5-min Rain = 0
KPD2 101329Z 11004KT 17/10 A3028 RMK A01 T01690103  RH  065%=      5-min Rain = 0
KPD2 101330Z 10004KT 17/10 A3028 RMK A01 T01690103  RH  065%=      5-min Rain = 0
KPD2 101331Z 11004KT 17/10 A3028 RMK A01 T01700103  RH  065%=      5-min Rain = 0
KPD2 101332Z 12004KT 17/10 A3028 RMK A01 T01700103  RH  065%=      5-min Rain = 0
KPD2 101333Z 11004KT 17/10 A3028 RMK A01 T01710104  RH  065%=      5-min Rain = 0
KPD2 101334Z 12004KT 17/10 A3028 RMK A01 T01710104  RH  064%=      5-min Rain = 0
KPD2 101335Z 11004KT 17/10 A3028 RMK A01 T01710104  RH  064%=      5-min Rain = 0
KPD2 101336Z 10003KT 17/10 A3028 RMK A01 T01720103  RH  064%=      5-min Rain = 0
KPD2 101337Z 12003KT 17/10 A3028 RMK A01 T01730104  RH  064%=      5-min Rain = 0
KPD2 101338Z 12004KT 17/10 A3029 RMK A01 T01730103  RH  063%=      5-min Rain = 0
KPD2 101339Z 10004KT 17/10 A3029 RMK A01 T01730103  RH  064%=      5-min Rain = 0
KPD2 101340Z 10004KT 17/10 A3029 RMK A01 T01730104  RH  064%=      5-min Rain = 0
KPD2 101341Z 10003KT 17/10 A3029 RMK A01 T01730104  RH  064%=      5-min Rain = 0
KPD2 101342Z 11003KT 17/10 A3029 RMK A01 T01730104  RH  064%=      5-min Rain = 0
KPD2 101343Z 10005KT 17/10 A3029 RMK A01 T01740104  RH  064%=      5-min Rain = 0
KPD2 101344Z 12005KT 17/10 A3029 RMK A01 T01740104  RH  063%=      5-min Rain = 0
KPD2 101345Z 11004KT 18/10 A3029 RMK A01 T01750104  RH  063%=      5-min Rain = 0
KPD2 101346Z 12005KT 18/10 A3029 RMK A01 T01750104  RH  063%=      5-min Rain = 0
KPD2 101347Z 11005KT 18/10 A3029 RMK A01 T01750104  RH  063%=      5-min Rain = 0
KPD2 101348Z 11006KT 18/10 A3029 RMK A01 T01750104  RH  063%=      5-min Rain = 0
KPD2 101349Z 11006KT 18/10 A3029 RMK A01 T01760104  RH  063%=      5-min Rain = 0
KPD2 101350Z 11005KT 18/10 A3029 RMK A01 T01760104  RH  063%=      5-min Rain = 0
KPD2 101351Z 12007KT 18/11 A3029 RMK A01 T01760105  RH  063%=      5-min Rain = 0
KPD2 101352Z 11005KT 18/11 A3029 RMK A01 T01770105  RH  063%=      5-min Rain = 0
KPD2 101353Z 11005KT 18/11 A3029 RMK A01 T01770105  RH  062%=      5-min Rain = 0
KPD2 101354Z 11005KT 18/11 A3029 RMK A01 T01780105  RH  062%=      5-min Rain = 0
KPD2 101355Z 11004KT 18/11 A3029 RMK A01 T01790105  RH  062%=      5-min Rain = 0
KPD2 101356Z 11004KT 18/11 A3029 RMK A01 T01800105  RH  062%=      5-min Rain = 0
KPD2 101357Z 12003KT 18/11 A3029 RMK A01 T01800106  RH  062%=      5-min Rain = 0
KPD2 101358Z 11005KT 18/11 A3028 RMK A01 T01810106  RH  061%=      5-min Rain = 0
KPD2 101359Z 12004KT 18/11 A3028 RMK A01 T01820106  RH  061%=      5-min Rain = 0
KPD2 101400Z 13004KT 18/11 A3028 RMK A01 T01830106  RH  061%=      5-min Rain = 0
KPD2 101401Z 13005KT 18/11 A3028 RMK A01 T01840105  RH  060%=      5-min Rain = 0
KPD2 101402Z 13005KT 18/11 A3028 RMK A01 T01840106  RH  060%=      5-min Rain = 0
KPD2 101403Z 13006KT 18/11 A3028 RMK A01 T01840106  RH  060%=      5-min Rain = 0
KPD2 101404Z 12007KT 18/11 A3028 RMK A01 T01840105  RH  060%=      5-min Rain = 0
KPD2 101405Z 12005KT 18/11 A3028 RMK A01 T01830105  RH  060%=      5-min Rain = 0
KPD2 101406Z 11006KT 18/11 A3028 RMK A01 T01840106  RH  060%=      5-min Rain = 0
KPD2 101407Z 11004KT 19/11 A3028 RMK A01 T01850106  RH  060%=      5-min Rain = 0
KPD2 101408Z 12006KT 19/11 A3028 RMK A01 T01860107  RH  060%=      5-min Rain = 0
KPD2 101409Z 12007KT 19/11 A3028 RMK A01 T01870106  RH  059%=      5-min Rain = 0
KPD2 101410Z 12006KT 19/11 A3028 RMK A01 T01870106  RH  059%=      5-min Rain = 0
KPD2 101411Z 12007KT 19/11 A3028 RMK A01 T01870105  RH  059%=      5-min Rain = 0
KPD2 101412Z 11006KT 19/11 A3028 RMK A01 T01880106  RH  059%=      5-min Rain = 0
KPD2 101413Z 12005KT 19/11 A3028 RMK A01 T01880106  RH  059%=      5-min Rain = 0
KPD2 101414Z 11006KT 19/11 A3028 RMK A01 T01890106  RH  059%=      5-min Rain = 0
KPD2 101415Z 13006KT 19/11 A3028 RMK A01 T01890107  RH  059%=      5-min Rain = 0
KPD2 101421Z 10005KT 19/11 A3028 RMK A01 T01910108  RH  059%=      5-min Rain = 0
KPD2 101422Z 10006KT 19/11 A3028 RMK A01 T01910107  RH  058%=      5-min Rain = 0
KPD2 101423Z 11006KT 19/11 A3028 RMK A01 T01910107  RH  058%=      5-min Rain = 0
KPD2 101424Z 13005KT 19/11 A3028 RMK A01 T01920108  RH  058%=      5-min Rain = 0
KPD2 101425Z 12007KT 19/11 A3029 RMK A01 T01930109  RH  058%=      5-min Rain = 0
KPD2 101426Z 12006KT 20/11 A3028 RMK A01 T01950108  RH  057%=      5-min Rain = 0
KPD2 101427Z 12006KT 20/11 A3028 RMK A01 T01950108  RH  057%=      5-min Rain = 0
KPD2 101428Z 14007KT 20/11 A3029 RMK A01 T01960108  RH  057%=      5-min Rain = 0
KPD2 101429Z 13006KT 20/11 A3029 RMK A01 T01950107  RH  057%=      5-min Rain = 0
KPD2 101430Z 13005KT 20/11 A3029 RMK A01 T01950109  RH  057%=      5-min Rain = 0
KPD2 101431Z 12004KT 20/11 A3029 RMK A01 T01960108  RH  057%=      5-min Rain = 0
KPD2 101432Z 13005KT 20/11 A3029 RMK A01 T01960108  RH  057%=      5-min Rain = 0
KPD2 101433Z 14005KT 20/11 A3029 RMK A01 T01970107  RH  056%=      5-min Rain = 0
KPD2 101434Z 13004KT 20/11 A3029 RMK A01 T01970108  RH  057%=      5-min Rain = 0
KPD2 101435Z 12005KT 20/11 A3029 RMK A01 T01970109  RH  057%=      5-min Rain = 0
KPD2 101436Z 12005KT 20/11 A3029 RMK A01 T01970108  RH  056%=      5-min Rain = 0
KPD2 101437Z 12004KT 20/11 A3029 RMK A01 T01980109  RH  056%=      5-min Rain = 0
KPD2 101438Z 15005KT 20/11 A3029 RMK A01 T01990108  RH  056%=      5-min Rain = 0
KPD2 101439Z 15004KT 20/11 A3029 RMK A01 T01990108  RH  056%=      5-min Rain = 0
KPD2 101440Z 13004KT 20/11 A3029 RMK A01 T01980109  RH  056%=      5-min Rain = 0
KPD2 101441Z 12004KT 20/11 A3029 RMK A01 T01980108  RH  056%=      5-min Rain = 0
KPD2 101442Z 12003KT 20/11 A3029 RMK A01 T01980109  RH  056%=      5-min Rain = 0
KPD2 101443Z 12004KT 20/11 A3029 RMK A01 T01990109  RH  056%=      5-min Rain = 0
KPD2 101444Z 15005KT 20/11 A3029 RMK A01 T02000109  RH  056%=      5-min Rain = 0
KPD2 101445Z 15005KT 20/11 A3029 RMK A01 T02010109  RH  055%=      5-min Rain = 0
KPD2 101446Z 16004KT 20/11 A3029 RMK A01 T02000107  RH  055%=      5-min Rain = 0
KPD2 101447Z 14002KT 20/11 A3029 RMK A01 T01990108  RH  056%=      5-min Rain = 0
KPD2 101448Z 10003KT 20/11 A3029 RMK A01 T02000109  RH  056%=      5-min Rain = 0
KPD2 101449Z 10003KT 20/11 A3029 RMK A01 T02010110  RH  056%=      5-min Rain = 0
KPD2 101450Z 08005KT 20/11 A3029 RMK A01 T02020109  RH  055%=      5-min Rain = 0
KPD2 101451Z 08004KT 20/11 A3029 RMK A01 T02020109  RH  055%=      5-min Rain = 0
KPD2 101452Z 09003KT 20/11 A3029 RMK A01 T02010110  RH  056%=      5-min Rain = 0
KPD2 101453Z 11002KT 20/11 A3029 RMK A01 T02020110  RH  055%=      5-min Rain = 0
KPD2 101454Z 12003KT 20/11 A3029 RMK A01 T02030110  RH  055%=      5-min Rain = 0
KPD2 101455Z 13004KT 21/11 A3029 RMK A01 T02050112  RH  055%=      5-min Rain = 0
KPD2 101456Z 12004KT 21/11 A3029 RMK A01 T02070111  RH  054%=      5-min Rain = 0
KPD2 101457Z 10003KT 21/11 A3029 RMK A01 T02080111  RH  054%=      5-min Rain = 0
KPD2 101458Z 11004KT 21/11 A3029 RMK A01 T02090111  RH  054%=      5-min Rain = 0
KPD2 101459Z 11005KT 21/11 A3029 RMK A01 T02090111  RH  053%=      5-min Rain = 0
KPD2 101500Z 13005KT 21/11 A3029 RMK A01 T02100111  RH  053%=      5-min Rain = 0
KPD2 101501Z 13003KT 21/11 A3029 RMK A01 T02100110  RH  053%=      5-min Rain = 0
KPD2 101502Z 11002KT 21/11 A3029 RMK A01 T02100110  RH  053%=      5-min Rain = 0
KPD2 101503Z 12004KT 21/11 A3029 RMK A01 T02100111  RH  053%=      5-min Rain = 0
KPD2 101504Z 11003KT 21/11 A3029 RMK A01 T02090110  RH  053%=      5-min Rain = 0
KPD2 101505Z 09003KT 21/11 A3029 RMK A01 T02100111  RH  053%=      5-min Rain = 0
KPD2 101506Z 10004KT 21/11 A3029 RMK A01 T02100112  RH  054%=      5-min Rain = 0
KPD2 101507Z 09003KT 21/11 A3029 RMK A01 T02110112  RH  053%=      5-min Rain = 0
KPD2 101508Z 10003KT 21/11 A3029 RMK A01 T02120112  RH  053%=      5-min Rain = 0
KPD2 101509Z 09003KT 21/11 A3029 RMK A01 T02130111  RH  052%=      5-min Rain = 0
KPD2 101510Z 13002KT 21/11 A3028 RMK A01 T02130112  RH  052%=      5-min Rain = 0
KPD2 101511Z 11003KT 21/11 A3028 RMK A01 T02140112  RH  052%=      5-min Rain = 0
KPD2 101512Z 11004KT 22/11 A3028 RMK A01 T02150112  RH  052%=      5-min Rain = 0
KPD2 101513Z 14005KT 22/11 A3028 RMK A01 T02150113  RH  052%=      5-min Rain = 0
KPD2 101514Z 10004KT 22/11 A3028 RMK A01 T02160114  RH  052%=      5-min Rain = 0
KPD2 101515Z 11004KT 22/11 A3028 RMK A01 T02160113  RH  052%=      5-min Rain = 0
KPD2 101516Z 13006KT 22/11 A3028 RMK A01 T02170113  RH  051%=      5-min Rain = 0
KPD2 101517Z 13005KT 22/11 A3028 RMK A01 T02170112  RH  051%=      5-min Rain = 0
KPD2 101518Z 12004KT 22/11 A3028 RMK A01 T02180113  RH  051%=      5-min Rain = 0
KPD2 101519Z 10005KT 22/12 A3028 RMK A01 T02180115  RH  052%=      5-min Rain = 0
KPD2 101520Z 10005KT 22/11 A3028 RMK A01 T02190113  RH  051%=      5-min Rain = 0
KPD2 101521Z 11005KT 22/11 A3029 RMK A01 T02190113  RH  051%=      5-min Rain = 0
KPD2 101522Z 11005KT 22/11 A3029 RMK A01 T02180114  RH  052%=      5-min Rain = 0
KPD2 101523Z 09004KT 22/11 A3029 RMK A01 T02180114  RH  051%=      5-min Rain = 0
KPD2 101524Z 08003KT 22/11 A3029 RMK A01 T02180114  RH  051%=      5-min Rain = 0
KPD2 101525Z 10004KT 22/12 A3029 RMK A01 T02180115  RH  052%=      5-min Rain = 0
KPD2 101526Z 10003KT 22/11 A3029 RMK A01 T02190113  RH  051%=      5-min Rain = 0
KPD2 101527Z 11004KT 22/11 A3029 RMK A01 T02200113  RH  051%=      5-min Rain = 0
KPD2 101528Z 14005KT 22/11 A3029 RMK A01 T02210113  RH  050%=      5-min Rain = 0
KPD2 101529Z 13004KT 22/11 A3029 RMK A01 T02210113  RH  050%=      5-min Rain = 0
KPD2 101530Z 11004KT 22/11 A3029 RMK A01 T02200113  RH  051%=      5-min Rain = 0
KPD2 101531Z 11005KT 22/12 A3029 RMK A01 T02210115  RH  051%=      5-min Rain = 0
KPD2 101532Z 11005KT 22/12 A3029 RMK A01 T02240117  RH  051%=      5-min Rain = 0
KPD2 101533Z 13005KT 23/12 A3029 RMK A01 T02270118  RH  050%=      5-min Rain = 0
KPD2 101534Z 13006KT 23/12 A3029 RMK A01 T02300117  RH  049%=      5-min Rain = 0
KPD2 101535Z 12007KT 23/12 A3029 RMK A01 T02310116  RH  048%=      5-min Rain = 0
KPD2 101536Z 14008KT 23/12 A3029 RMK A01 T02310115  RH  048%=      5-min Rain = 0
KPD2 101537Z 15007KT 23/12 A3029 RMK A01 T02310115  RH  048%=      5-min Rain = 0
KPD2 101538Z 14007KT 23/11 A3029 RMK A01 T02310114  RH  048%=      5-min Rain = 0
KPD2 101539Z 16003KT 23/11 A3029 RMK A01 T02300114  RH  048%=      5-min Rain = 0
KPD2 101540Z 19006KT 23/11 A3029 RMK A01 T02300114  RH  048%=      5-min Rain = 0
KPD2 101541Z 13004KT 23/12 A3029 RMK A01 T02300116  RH  048%=      5-min Rain = 0
KPD2 101542Z 13004KT 23/12 A3028 RMK A01 T02310116  RH  048%=      5-min Rain = 0
KPD2 101543Z 14003KT 23/12 A3028 RMK A01 T02330115  RH  047%=      5-min Rain = 0
KPD2 101544Z 13003KT 23/11 A3028 RMK A01 T02340113  RH  047%=      5-min Rain = 0
KPD2 101545Z 12001KT 24/11 A3028 RMK A01 T02350114  RH  047%=      5-min Rain = 0
KPD2 101546Z 13000KT 24/11 A3028 RMK A01 T02350112  RH  046%=      5-min Rain = 0
KPD2 101547Z 14001KT 23/11 A3028 RMK A01 T02340112  RH  046%=      5-min Rain = 0
KPD2 101548Z 13004G10KT 24/12 A3028 RMK A01 T02350115  RH  047%=      5-min Rain = 0
KPD2 101549Z 13005KT 24/12 A3028 RMK A01 T02380117  RH  047%=      5-min Rain = 0
KPD2 101550Z 15007G12KT 24/11 A3028 RMK A01 T02400114  RH  045%=      5-min Rain = 0
KPD2 101551Z 15009KT 24/11 A3028 RMK A01 T02410113  RH  045%=      5-min Rain = 0
KPD2 101552Z 16006KT 24/11 A3028 RMK A01 T02390113  RH  045%=      5-min Rain = 0
KPD2 101553Z 14008KT 24/11 A3028 RMK A01 T02380113  RH  045%=      5-min Rain = 0
KPD2 101554Z 15009KT 24/11 A3028 RMK A01 T02380112  RH  045%=      5-min Rain = 0
KPD2 101555Z 13010KT 24/11 A3028 RMK A01 T02370111  RH  045%=      5-min Rain = 0
KPD2 101556Z 15006KT 24/11 A3028 RMK A01 T02370113  RH  045%=      5-min Rain = 0
KPD2 101557Z 14007KT 24/11 A3028 RMK A01 T02380111  RH  045%=      5-min Rain = 0
KPD2 101558Z 13008KT 24/11 A3028 RMK A01 T02380112  RH  045%=      5-min Rain = 0
KPD2 101559Z 13010KT 24/11 A3028 RMK A01 T02390113  RH  045%=      5-min Rain = 0
KPD2 101600Z 12005KT 24/11 A3028 RMK A01 T02420113  RH  044%=      5-min Rain = 0
KPD2 101601Z 14007KT 24/11 A3028 RMK A01 T02440114  RH  044%=      5-min Rain = 0
KPD2 101602Z 14007KT 25/11 A3028 RMK A01 T02450113  RH  043%=      5-min Rain = 0
KPD2 101603Z 15006KT 25/11 A3028 RMK A01 T02450113  RH  043%=      5-min Rain = 0
KPD2 101604Z 16008KT 25/11 A3028 RMK A01 T02450114  RH  044%=      5-min Rain = 0
KPD2 101605Z 16008KT 25/11 A3028 RMK A01 T02450112  RH  043%=      5-min Rain = 0
KPD2 101606Z 16004KT 24/11 A3028 RMK A01 T02440112  RH  044%=      5-min Rain = 0
KPD2 101607Z 15004KT 25/11 A3028 RMK A01 T02450113  RH  044%=      5-min Rain = 0
KPD2 101608Z 16007KT 25/11 A3027 RMK A01 T02450112  RH  043%=      5-min Rain = 0
KPD2 101609Z 14009KT 25/11 A3027 RMK A01 T02460113  RH  043%=      5-min Rain = 0
KPD2 101610Z 16006G11KT 25/11 A3027 RMK A01 T02470113  RH  043%=      5-min Rain = 0
KPD2 101611Z 19006KT 25/11 A3027 RMK A01 T02470114  RH  043%=      5-min Rain = 0
KPD2 101612Z 15006KT 25/11 A3027 RMK A01 T02480114  RH  043%=      5-min Rain = 0
KPD2 101613Z 14005KT 25/11 A3027 RMK A01 T02490111  RH  042%=      5-min Rain = 0
KPD2 101614Z 16005KT 25/11 A3027 RMK A01 T02470112  RH  043%=      5-min Rain = 0
KPD2 101615Z 15002KT 25/11 A3027 RMK A01 T02460110  RH  042%=      5-min Rain = 0
KPD2 101616Z 14006G11KT 25/11 A3027 RMK A01 T02450111  RH  043%=      5-min Rain = 0
KPD2 101617Z 15007KT 25/11 A3027 RMK A01 T02450111  RH  043%=      5-min Rain = 0
KPD2 101618Z 15004KT 25/11 A3027 RMK A01 T02470111  RH  042%=      5-min Rain = 0
KPD2 101619Z 14006KT 25/11 A3027 RMK A01 T02480112  RH  043%=      5-min Rain = 0
KPD2 101620Z 15007KT 25/11 A3027 RMK A01 T02500113  RH  042%=      5-min Rain = 0
KPD2 101621Z 18005KT 25/11 A3027 RMK A01 T02510111  RH  041%=      5-min Rain = 0
KPD2 101622Z 22005KT 25/11 A3027 RMK A01 T02510114  RH  042%=      5-min Rain = 0
KPD2 101623Z 18003KT 25/11 A3027 RMK A01 T02510112  RH  042%=      5-min Rain = 0
KPD2 101624Z 17005KT 25/11 A3027 RMK A01 T02510112  RH  042%=      5-min Rain = 0
KPD2 101625Z 13007KT 25/11 A3027 RMK A01 T02500113  RH  042%=      5-min Rain = 0
KPD2 101626Z 14005G10KT 25/11 A3027 RMK A01 T02520114  RH  042%=      5-min Rain = 0
KPD2 101627Z 15009KT 25/11 A3027 RMK A01 T02540114  RH  042%=      5-min Rain = 0
KPD2 101628Z 15008KT 25/11 A3027 RMK A01 T02540112  RH  041%=      5-min Rain = 0
KPD2 101629Z 14005KT 25/11 A3027 RMK A01 T02530112  RH  041%=      5-min Rain = 0
KPD2 101630Z 15009KT 25/11 A3027 RMK A01 T02520113  RH  042%=      5-min Rain = 0
KPD2 101631Z 14009KT 25/11 A3026 RMK A01 T02520112  RH  041%=      5-min Rain = 0
KPD2 101632Z 14007KT 25/11 A3027 RMK A01 T02520112  RH  042%=      5-min Rain = 0
KPD2 101633Z 15005KT 25/11 A3026 RMK A01 T02520113  RH  042%=      5-min Rain = 0
KPD2 101634Z 16006KT 25/11 A3026 RMK A01 T02540112  RH  041%=      5-min Rain = 0
KPD2 101635Z 15004KT 25/11 A3026 RMK A01 T02540113  RH  041%=      5-min Rain = 0
KPD2 101636Z 15008KT 25/11 A3026 RMK A01 T02540113  RH  041%=      5-min Rain = 0
KPD2 101637Z 13006KT 26/11 A3026 RMK A01 T02550113  RH  041%=      5-min Rain = 0
KPD2 101638Z 12005KT 26/11 A3026 RMK A01 T02560113  RH  041%=      5-min Rain = 0
KPD2 101639Z 15010KT 26/11 A3026 RMK A01 T02580114  RH  041%=      5-min Rain = 0
KPD2 101640Z 15007KT 26/11 A3026 RMK A01 T02570112  RH  040%=      5-min Rain = 0
KPD2 101641Z 14005KT 26/11 A3026 RMK A01 T02570114  RH  041%=      5-min Rain = 0
KPD2 101642Z 14006KT 26/11 A3026 RMK A01 T02580114  RH  041%=      5-min Rain = 0
KPD2 101643Z 16008KT 26/11 A3026 RMK A01 T02590114  RH  040%=      5-min Rain = 0
KPD2 101644Z 14004G9KT 26/11 A3026 RMK A01 T02590114  RH  040%=      5-min Rain = 0
KPD2 101645Z 16008KT 26/12 A3026 RMK A01 T02600115  RH  040%=      5-min Rain = 0
KPD2 101646Z 14009KT 26/12 A3026 RMK A01 T02610115  RH  040%=      5-min Rain = 0
KPD2 101647Z 14010KT 26/11 A3026 RMK A01 T02620114  RH  040%=      5-min Rain = 0
KPD2 101648Z 15006KT 26/11 A3026 RMK A01 T02620114  RH  040%=      5-min Rain = 0
KPD2 101649Z 14010G16KT 26/12 A3026 RMK A01 T02610115  RH  040%=      5-min Rain = 0
KPD2 101650Z 15008KT 26/11 A3026 RMK A01 T02620113  RH  039%=      5-min Rain = 0
KPD2 101651Z 15011KT 26/11 A3026 RMK A01 T02610113  RH  040%=      5-min Rain = 0
KPD2 101652Z 15007KT 26/11 A3026 RMK A01 T02600111  RH  039%=      5-min Rain = 0
KPD2 101653Z 15010KT 26/11 A3026 RMK A01 T02590111  RH  040%=      5-min Rain = 0
KPD2 101654Z 16011G16KT 26/11 A3026 RMK A01 T02580111  RH  040%=      5-min Rain = 0
KPD2 101655Z 12007KT 26/11 A3026 RMK A01 T02570110  RH  040%=      5-min Rain = 0
KPD2 101656Z 18005KT 26/11 A3026 RMK A01 T02560110  RH  040%=      5-min Rain = 0
KPD2 101657Z 19002KT 26/11 A3026 RMK A01 T02560110  RH  040%=      5-min Rain = 0
KPD2 101658Z 14004G9KT 26/11 A3026 RMK A01 T02570110  RH  040%=      5-min Rain = 0
KPD2 101659Z 11006KT 26/11 A3026 RMK A01 T02600113  RH  040%=      5-min Rain = 0
KPD2 101700Z 11006KT 26/11 A3026 RMK A01 T02610114  RH  040%=      5-min Rain = 0
KPD2 101701Z 13005KT 26/11 A3026 RMK A01 T02640114  RH  039%=      5-min Rain = 0
KPD2 101702Z 14009KT 27/12 A3026 RMK A01 T02660116  RH  039%=      5-min Rain = 0
KPD2 101703Z 16009KT 27/11 A3026 RMK A01 T02670113  RH  038%=      5-min Rain = 0
KPD2 101704Z 15006KT 27/11 A3026 RMK A01 T02650112  RH  038%=      5-min Rain = 0
KPD2 101705Z 14007KT 26/11 A3026 RMK A01 T02630112  RH  039%=      5-min Rain = 0
KPD2 101706Z 14010KT 26/11 A3026 RMK A01 T02630111  RH  039%=      5-min Rain = 0
KPD2 101707Z 15008KT 26/11 A3026 RMK A01 T02630110  RH  038%=      5-min Rain = 0
KPD2 101708Z 14009KT 26/11 A3026 RMK A01 T02630112  RH  039%=      5-min Rain = 0
KPD2 101709Z 14007KT 27/11 A3026 RMK A01 T02650113  RH  039%=      5-min Rain = 0
KPD2 101710Z 14008KT 27/11 A3026 RMK A01 T02660114  RH  039%=      5-min Rain = 0
KPD2 101711Z 15008KT 27/11 A3026 RMK A01 T02680113  RH  038%=      5-min Rain = 0
KPD2 101712Z 15006KT 27/11 A3026 RMK A01 T02660111  RH  038%=      5-min Rain = 0
KPD2 101713Z 16007KT 26/11 A3026 RMK A01 T02640112  RH  039%=      5-min Rain = 0
KPD2 101714Z 15003KT 26/11 A3026 RMK A01 T02640110  RH  038%=      5-min Rain = 0
KPD2 101715Z 16002KT 27/11 A3025 RMK A01 T02660112  RH  038%=      5-min Rain = 0
KPD2 101716Z 14006KT 27/11 A3025 RMK A01 T02670114  RH  038%=      5-min Rain = 0
KPD2 101717Z 13008KT 27/11 A3025 RMK A01 T02680113  RH  038%=      5-min Rain = 0
KPD2 101718Z 13009KT 27/12 A3025 RMK A01 T02700115  RH  038%=      5-min Rain = 0
KPD2 101719Z 14009KT 27/12 A3025 RMK A01 T02730115  RH  037%=      5-min Rain = 0
KPD2 101720Z 13007G13KT 27/11 A3025 RMK A01 T02740114  RH  037%=      5-min Rain = 0
KPD2 101721Z 13009KT 27/12 A3025 RMK A01 T02740115  RH  037%=      5-min Rain = 0
KPD2 101722Z 14007KT 28/11 A3025 RMK A01 T02750113  RH  037%=      5-min Rain = 0
KPD2 101723Z 14008KT 28/11 A3025 RMK A01 T02750113  RH  037%=      5-min Rain = 0
KPD2 101724Z 14005KT 28/11 A3025 RMK A01 T02760112  RH  036%=      5-min Rain = 0
KPD2 101725Z 15004KT 28/11 A3025 RMK A01 T02750111  RH  036%=      5-min Rain = 0
KPD2 101726Z 18009KT 27/11 A3025 RMK A01 T02740114  RH  037%=      5-min Rain = 0
KPD2 101727Z 17006KT 27/11 A3025 RMK A01 T02730112  RH  037%=      5-min Rain = 0
KPD2 101728Z 14006G11KT 27/11 A3025 RMK A01 T02720112  RH  037%=      5-min Rain = 0
KPD2 101729Z 12006KT 27/11 A3025 RMK A01 T02720114  RH  037%=      5-min Rain = 0
KPD2 101730Z 13002KT 27/11 A3025 RMK A01 T02720110  RH  036%=      5-min Rain = 0
KPD2 101731Z 15003KT 27/11 A3025 RMK A01 T02720112  RH  037%=      5-min Rain = 0
KPD2 101732Z 17004KT 27/11 A3025 RMK A01 T02730111  RH  036%=      5-min Rain = 0
KPD2 101733Z 15003KT 27/11 A3025 RMK A01 T02730111  RH  036%=      5-min Rain = 0
KPD2 101734Z 17004KT 27/11 A3025 RMK A01 T02740113  RH  037%=      5-min Rain = 0
KPD2 101735Z 17007KT 28/11 A3025 RMK A01 T02750112  RH  036%=      5-min Rain = 0
KPD2 101736Z 20007KT 28/11 A3025 RMK A01 T02760113  RH  036%=      5-min Rain = 0
KPD2 101737Z 20006KT 28/11 A3025 RMK A01 T02770113  RH  036%=      5-min Rain = 0
KPD2 101738Z 17005KT 28/11 A3025 RMK A01 T02760113  RH  036%=      5-min Rain = 0
KPD2 101739Z 16006KT 28/11 A3025 RMK A01 T02750113  RH  037%=      5-min Rain = 0
KPD2 101740Z 17006KT 28/11 A3025 RMK A01 T02750112  RH  036%=      5-min Rain = 0
KPD2 101741Z 16003KT 27/11 A3025 RMK A01 T02730111  RH  036%=      5-min Rain = 0
KPD2 101742Z 21004KT 27/11 A3025 RMK A01 T02720114  RH  037%=      5-min Rain = 0
KPD2 101743Z 23005KT 28/11 A3025 RMK A01 T02750114  RH  037%=      5-min Rain = 0
KPD2 101744Z 21005KT 28/12 A3025 RMK A01 T02760116  RH  037%=      5-min Rain = 0
KPD2 101745Z 21004KT 28/11 A3025 RMK A01 T02770114  RH  036%=      5-min Rain = 0
KPD2 101746Z 19003KT 28/11 A3025 RMK A01 T02780113  RH  036%=      5-min Rain = 0
KPD2 101747Z 17002KT 28/11 A3025 RMK A01 T02780113  RH  036%=      5-min Rain = 0
KPD2 101748Z 13007KT 28/11 A3025 RMK A01 T02780113  RH  036%=      5-min Rain = 0
KPD2 101749Z 14009KT 28/11 A3025 RMK A01 T02800113  RH  035%=      5-min Rain = 0
KPD2 101750Z 14009KT 28/11 A3024 RMK A01 T02810111  RH  035%=      5-min Rain = 0
KPD2 101751Z 14010KT 28/11 A3024 RMK A01 T02800113  RH  035%=      5-min Rain = 0
KPD2 101752Z 16011KT 28/11 A3025 RMK A01 T02810111  RH  035%=      5-min Rain = 0
KPD2 101753Z 16007KT 28/11 A3025 RMK A01 T02790111  RH  035%=      5-min Rain = 0
KPD2 101754Z 17010KT 28/11 A3025 RMK A01 T02780111  RH  035%=      5-min Rain = 0
KPD2 101755Z 18006KT 28/11 A3025 RMK A01 T02760108  RH  035%=      5-min Rain = 0
KPD2 101756Z 22005KT 28/11 A3025 RMK A01 T02750110  RH  036%=      5-min Rain = 0
KPD2 101757Z 22004KT 28/11 A3025 RMK A01 T02750114  RH  037%=      5-min Rain = 0
KPD2 101758Z 24004KT 28/12 A3024 RMK A01 T02790115  RH  036%=      5-min Rain = 0
KPD2 101759Z 24005KT 28/11 A3024 RMK A01 T02810112  RH  035%=      5-min Rain = 0
KPD2 101800Z 23002KT 28/11 A3024 RMK A01 T02810110  RH  034%=      5-min Rain = 0
KPD2 101801Z 17004KT 28/11 A3024 RMK A01 T02800112  RH  035%=      5-min Rain = 0
KPD2 101802Z 14007KT 28/11 A3024 RMK A01 T02790111  RH  035%=      5-min Rain = 0
KPD2 101803Z 14009KT 28/11 A3024 RMK A01 T02800114  RH  036%=      5-min Rain = 0
KPD2 101804Z 12009KT 28/11 A3024 RMK A01 T02820113  RH  035%=      5-min Rain = 0
KPD2 101805Z 12005KT 28/11 A3024 RMK A01 T02840114  RH  035%=      5-min Rain = 0
KPD2 101806Z 13009KT 29/12 A3024 RMK A01 T02870116  RH  034%=      5-min Rain = 0
KPD2 101807Z 19007KT 29/11 A3024 RMK A01 T02900114  RH  034%=      5-min Rain = 0
KPD2 101808Z 20007KT 29/11 A3024 RMK A01 T02880113  RH  034%=      5-min Rain = 0
KPD2 101809Z 21003G8KT 28/11 A3024 RMK A01 T02840110  RH  034%=      5-min Rain = 0
KPD2 101810Z 22006KT 28/12 A3024 RMK A01 T02840116  RH  035%=      5-min Rain = 0
KPD2 101811Z 22006KT 28/11 A3024 RMK A01 T02840111  RH  034%=      5-min Rain = 0
KPD2 101812Z 26005KT 28/11 A3024 RMK A01 T02830112  RH  035%=      5-min Rain = 0
KPD2 101813Z 22006KT 28/11 A3024 RMK A01 T02820114  RH  035%=      5-min Rain = 0
KPD2 101814Z 22006KT 28/11 A3024 RMK A01 T02820114  RH  035%=      5-min Rain = 0
KPD2 101815Z 22007KT 28/12 A3024 RMK A01 T02840116  RH  035%=      5-min Rain = 0
KPD2 101816Z 21005KT 29/11 A3024 RMK A01 T02850114  RH  035%=      5-min Rain = 0
KPD2 101817Z 21006KT 29/11 A3024 RMK A01 T02850114  RH  035%=      5-min Rain = 0
KPD2 101818Z 22004KT 29/11 A3024 RMK A01 T02860113  RH  034%=      5-min Rain = 0
KPD2 101819Z 25005KT 29/12 A3024 RMK A01 T02870116  RH  035%=      5-min Rain = 0
KPD2 101820Z 24002KT 29/12 A3024 RMK A01 T02880118  RH  035%=      5-min Rain = 0
KPD2 101821Z 16001KT 29/11 A3024 RMK A01 T02910114  RH  033%=      5-min Rain = 0
KPD2 101822Z 12002KT 29/12 A3024 RMK A01 T02930115  RH  033%=      5-min Rain = 0
KPD2 101823Z 16008G13KT 30/12 A3024 RMK A01 T02950115  RH  033%=      5-min Rain = 0
KPD2 101824Z 17008KT 29/11 A3024 RMK A01 T02930113  RH  033%=      5-min Rain = 0
KPD2 101825Z 16009KT 29/11 A3023 RMK A01 T02880111  RH  033%=      5-min Rain = 0
KPD2 101826Z 16009KT 29/11 A3023 RMK A01 T02850111  RH  034%=      5-min Rain = 0
KPD2 101827Z 15008KT 29/11 A3024 RMK A01 T02850112  RH  034%=      5-min Rain = 0
KPD2 101828Z 19004KT 29/12 A3024 RMK A01 T02850115  RH  035%=      5-min Rain = 0
KPD2 101829Z 19006KT 29/11 A3024 RMK A01 T02870114  RH  034%=      5-min Rain = 0
KPD2 101830Z 17006KT 29/11 A3024 RMK A01 T02870112  RH  034%=      5-min Rain = 0
KPD2 101831Z 15009KT 29/11 A3023 RMK A01 T02860113  RH  034%=      5-min Rain = 0
KPD2 101832Z 17006KT 29/11 A3023 RMK A01 T02860112  RH  034%=      5-min Rain = 0
KPD2 101833Z 19005KT 29/11 A3023 RMK A01 T02850112  RH  034%=      5-min Rain = 0
KPD2 101834Z 20007KT 29/12 A3023 RMK A01 T02850116  RH  035%=      5-min Rain = 0
KPD2 101835Z 20004KT 29/11 A3023 RMK A01 T02870114  RH  034%=      5-min Rain = 0
KPD2 101836Z 16007KT 29/11 A3023 RMK A01 T02870114  RH  034%=      5-min Rain = 0
KPD2 101837Z 15011KT 29/11 A3023 RMK A01 T02880114  RH  034%=      5-min Rain = 0
KPD2 101838Z 15009KT 29/11 A3023 RMK A01 T02890114  RH  034%=      5-min Rain = 0
KPD2 101839Z 16007KT 29/11 A3023 RMK A01 T02890113  RH  034%=      5-min Rain = 0
KPD2 101840Z 15005KT 29/11 A3023 RMK A01 T02880113  RH  034%=      5-min Rain = 0
KPD2 101841Z 15005KT 29/11 A3023 RMK A01 T02880114  RH  034%=      5-min Rain = 0
KPD2 101842Z 18003KT 29/11 A3023 RMK A01 T02880112  RH  033%=      5-min Rain = 0
KPD2 101843Z 16007KT 29/11 A3023 RMK A01 T02870113  RH  034%=      5-min Rain = 0
KPD2 101844Z 17006KT 29/11 A3023 RMK A01 T02870111  RH  034%=      5-min Rain = 0
KPD2 101845Z 16005KT 28/11 A3023 RMK A01 T02840110  RH  034%=      5-min Rain = 0
KPD2 101846Z 17004KT 28/11 A3023 RMK A01 T02830111  RH  034%=      5-min Rain = 0
KPD2 101847Z 18006KT 28/11 A3023 RMK A01 T02840111  RH  034%=      5-min Rain = 0
KPD2 101848Z 14004G9KT 28/11 A3023 RMK A01 T02840112  RH  034%=      5-min Rain = 0
KPD2 101849Z 13009KT 29/12 A3023 RMK A01 T02870115  RH  034%=      5-min Rain = 0
KPD2 101850Z 18006KT 29/12 A3023 RMK A01 T02930117  RH  034%=      5-min Rain = 0
KPD2 101851Z 13009KT 30/12 A3023 RMK A01 T02950117  RH  033%=      5-min Rain = 0
KPD2 101852Z 14011KT 30/12 A3023 RMK A01 T02980117  RH  033%=      5-min Rain = 0
KPD2 101853Z 15008KT 30/12 A3023 RMK A01 T03000115  RH  032%=      5-min Rain = 0
KPD2 101854Z 14002KT 30/12 A3023 RMK A01 T02980115  RH  032%=      5-min Rain = 0
KPD2 101855Z 14005KT 30/12 A3023 RMK A01 T02980115  RH  032%=      5-min Rain = 0
KPD2 101856Z 14007KT 30/11 A3023 RMK A01 T02980113  RH  032%=      5-min Rain = 0
KPD2 101857Z 17006KT 30/11 A3023 RMK A01 T02960113  RH  032%=      5-min Rain = 0
KPD2 101858Z 19004KT 29/11 A3023 RMK A01 T02940111  RH  032%=      5-min Rain = 0
KPD2 101859Z 23001KT 29/11 A3022 RMK A01 T02890110  RH  033%=      5-min Rain = 0
KPD2 101900Z 21002KT 29/11 A3022 RMK A01 T02870110  RH  033%=      5-min Rain = 0
KPD2 101901Z 18004KT 29/12 A3022 RMK A01 T02880115  RH  034%=      5-min Rain = 0
KPD2 101902Z 17005KT 29/11 A3022 RMK A01 T02910113  RH  033%=      5-min Rain = 0
KPD2 101903Z 15005KT 29/12 A3022 RMK A01 T02920115  RH  033%=      5-min Rain = 0
KPD2 101904Z 14007KT 29/12 A3022 RMK A01 T02940116  RH  033%=      5-min Rain = 0
KPD2 101905Z 13006KT 30/11 A3022 RMK A01 T02970114  RH  032%=      5-min Rain = 0
KPD2 101906Z 11007KT 30/12 A3022 RMK A01 T02990116  RH  032%=      5-min Rain = 0
KPD2 101907Z 13005KT 30/12 A3022 RMK A01 T03020115  RH  032%=      5-min Rain = 0
KPD2 101908Z 14005KT 30/11 A3022 RMK A01 T03020112  RH  031%=      5-min Rain = 0
KPD2 101909Z 16003KT 30/11 A3022 RMK A01 T02980112  RH  032%=      5-min Rain = 0
KPD2 101910Z 12004KT 30/12 A3022 RMK A01 T02970115  RH  033%=      5-min Rain = 0
KPD2 101911Z 17006KT 30/12 A3022 RMK A01 T02990115  RH  032%=      5-min Rain = 0
KPD2 101912Z 16008KT 30/12 A3022 RMK A01 T03010115  RH  032%=      5-min Rain = 0
KPD2 101913Z 15007KT 30/11 A3022 RMK A01 T03010113  RH  031%=      5-min Rain = 0
KPD2 101914Z 13004KT 30/12 A3022 RMK A01 T02990115  RH  032%=      5-min Rain = 0
KPD2 101915Z 15005KT 30/11 A3022 RMK A01 T02990113  RH  032%=      5-min Rain = 0
KPD2 101916Z 17008KT 30/11 A3022 RMK A01 T02990114  RH  032%=      5-min Rain = 0
KPD2 101917Z 16007KT 30/11 A3022 RMK A01 T02990114  RH  032%=      5-min Rain = 0
KPD2 101918Z 15006KT 30/11 A3022 RMK A01 T02980112  RH  032%=      5-min Rain = 0
KPD2 101919Z 14004KT 30/11 A3022 RMK A01 T02970114  RH  032%=      5-min Rain = 0
KPD2 101920Z 15005KT 30/11 A3022 RMK A01 T02970112  RH  032%=      5-min Rain = 0
KPD2 101921Z 15004KT 30/11 A3022 RMK A01 T02980112  RH  032%=      5-min Rain = 0
KPD2 101922Z 15003KT 30/11 A3022 RMK A01 T02970112  RH  032%=      5-min Rain = 0
KPD2 101923Z 12005KT 30/11 A3021 RMK A01 T02960113  RH  032%=      5-min Rain = 0
KPD2 101924Z 11003KT 30/11 A3021 RMK A01 T02970114  RH  032%=      5-min Rain = 0
KPD2 101925Z 13004KT 30/11 A3021 RMK A01 T02990113  RH  032%=      5-min Rain = 0
KPD2 101926Z 17004KT 30/11 A3021 RMK A01 T02990114  RH  032%=      5-min Rain = 0
KPD2 101927Z 20008KT 30/12 A3021 RMK A01 T02990116  RH  032%=      5-min Rain = 0
KPD2 101928Z 21006KT 30/11 A3021 RMK A01 T02980114  RH  032%=      5-min Rain = 0
KPD2 101929Z 19006KT 30/12 A3021 RMK A01 T02980117  RH  033%=      5-min Rain = 0
KPD2 101930Z 18005KT 30/12 A3021 RMK A01 T02990116  RH  032%=      5-min Rain = 0
KPD2 101931Z 12008KT 30/12 A3021 RMK A01 T02990116  RH  032%=      5-min Rain = 0
KPD2 101932Z 12010KT 30/12 A3021 RMK A01 T03010119  RH  033%=      5-min Rain = 0
KPD2 101933Z 12010KT 31/12 A3021 RMK A01 T03060117  RH  031%=      5-min Rain = 0
KPD2 101934Z 11005KT 31/12 A3021 RMK A01 T03090116  RH  030%=      5-min Rain = 0
KPD2 101935Z 14006KT 31/12 A3021 RMK A01 T03090117  RH  031%=      5-min Rain = 0
KPD2 101936Z 15010KT 31/12 A3021 RMK A01 T03080116  RH  031%=      5-min Rain = 0
KPD2 101937Z 17010KT 31/11 A3021 RMK A01 T03050114  RH  031%=      5-min Rain = 0
KPD2 101938Z 19006KT 30/11 A3021 RMK A01 T03020114  RH  031%=      5-min Rain = 0
KPD2 101939Z 20005KT 30/12 A3021 RMK A01 T03000116  RH  032%=      5-min Rain = 0
KPD2 101940Z 12007KT 30/12 A3021 RMK A01 T03000116  RH  032%=      5-min Rain = 0
KPD2 101941Z 10004KT 30/11 A3021 RMK A01 T03020114  RH  031%=      5-min Rain = 0
KPD2 101942Z 13007KT 30/11 A3021 RMK A01 T03040114  RH  031%=      5-min Rain = 0
KPD2 101943Z 14006KT 31/12 A3021 RMK A01 T03050115  RH  031%=      5-min Rain = 0
KPD2 101944Z 14004G9KT 31/11 A3021 RMK A01 T03080114  RH  030%=      5-min Rain = 0
KPD2 101945Z 16009G15KT 31/11 A302 RMK A01 T03070112  RH  030%=      5-min Rain = 0
KPD2 101946Z 14008KT 30/11 A302 RMK A01 T03030113  RH  031%=      5-min Rain = 0
KPD2 101947Z 17008G13KT 30/11 A302 RMK A01 T03020112  RH  031%=      5-min Rain = 0
KPD2 101948Z 18007KT 30/11 A302 RMK A01 T03000112  RH  031%=      5-min Rain = 0
KPD2 101949Z 15011KT 30/11 A302 RMK A01 T02980113  RH  032%=      5-min Rain = 0
KPD2 101950Z 14010KT 30/11 A3021 RMK A01 T02980112  RH  032%=      5-min Rain = 0
KPD2 101951Z 12008KT 30/11 A3021 RMK A01 T02990113  RH  032%=      5-min Rain = 0
KPD2 101952Z 12006KT 30/11 A302 RMK A01 T03020114  RH  031%=      5-min Rain = 0
KPD2 101953Z 13006KT 31/12 A302 RMK A01 T03060116  RH  031%=      5-min Rain = 0
KPD2 101954Z 18004KT 31/11 A302 RMK A01 T03080114  RH  030%=      5-min Rain = 0
KPD2 101955Z 15002KT 31/11 A302 RMK A01 T03070113  RH  030%=      5-min Rain = 0
KPD2 101956Z 19002KT 31/11 A302 RMK A01 T03050113  RH  031%=      5-min Rain = 0
KPD2 101957Z 14003KT 30/11 A302 RMK A01 T03040113  RH  031%=      5-min Rain = 0
KPD2 101958Z 10005G12KT 31/12 A302 RMK A01 T03050115  RH  031%=      5-min Rain = 0
KPD2 101959Z 12010KT 31/12 A302 RMK A01 T03080115  RH  031%=      5-min Rain = 0
KPD2 102000Z 12009KT 31/12 A302 RMK A01 T03110115  RH  030%=      5-min Rain = 0
KPD2 102001Z 14011KT 31/11 A302 RMK A01 T03130114  RH  029%=      5-min Rain = 0
KPD2 102002Z 14009KT 31/11 A302 RMK A01 T03090112  RH  030%=      5-min Rain = 0
KPD2 102003Z 14008KT 31/11 A302 RMK A01 T03050111  RH  030%=      5-min Rain = 0
KPD2 102004Z 16007KT 30/11 A302 RMK A01 T03020111  RH  031%=      5-min Rain = 0
KPD2 102005Z 16005KT 30/11 A302 RMK A01 T03010111  RH  031%=      5-min Rain = 0
KPD2 102006Z 16006KT 30/11 A302 RMK A01 T03000114  RH  032%=      5-min Rain = 0
KPD2 102007Z 17010KT 30/11 A302 RMK A01 T03010113  RH  031%=      5-min Rain = 0
KPD2 102008Z 15011KT 30/11 A302 RMK A01 T03020114  RH  031%=      5-min Rain = 0
KPD2 102009Z 14009KT 30/11 A302 RMK A01 T03020113  RH  031%=      5-min Rain = 0
KPD2 102010Z 14006KT 30/11 A302 RMK A01 T03020114  RH  031%=      5-min Rain = 0
KPD2 102011Z 17005KT 30/11 A302 RMK A01 T03020114  RH  031%=      5-min Rain = 0
KPD2 102012Z 15005KT 30/11 A302 RMK A01 T03020111  RH  031%=      5-min Rain = 0
KPD2 102013Z 15007KT 30/11 A302 RMK A01 T03000113  RH  031%=      5-min Rain = 0
KPD2 102014Z 13004KT 30/11 A3019 RMK A01 T03010112  RH  031%=      5-min Rain = 0
KPD2 102015Z 17005KT 30/11 A3019 RMK A01 T03030112  RH  031%=      5-min Rain = 0
KPD2 102016Z 21005KT 30/11 A3019 RMK A01 T03040114  RH  031%=      5-min Rain = 0
KPD2 102017Z 21003KT 30/11 A3019 RMK A01 T03040114  RH  031%=      5-min Rain = 0
KPD2 102018Z 18004KT 30/12 A3019 RMK A01 T03040115  RH  031%=      5-min Rain = 0
KPD2 102019Z 23003KT 31/11 A3019 RMK A01 T03050114  RH  031%=      5-min Rain = 0
KPD2 102020Z 31002KT 31/11 A3019 RMK A01 T03050114  RH  031%=      5-min Rain = 0
KPD2 102021Z 33002KT 30/11 A3019 RMK A01 T03040113  RH  031%=      5-min Rain = 0
KPD2 102022Z 24002KT 30/11 A3019 RMK A01 T03030111  RH  031%=      5-min Rain = 0
KPD2 102023Z 17001KT 30/12 A3019 RMK A01 T03020116  RH  032%=      5-min Rain = 0
KPD2 102024Z 17006KT 31/12 A3019 RMK A01 T03050115  RH  031%=      5-min Rain = 0
KPD2 102025Z 16008KT 31/11 A3019 RMK A01 T03070114  RH  031%=      5-min Rain = 0
KPD2 102026Z 16008KT 31/11 A3019 RMK A01 T03060113  RH  030%=      5-min Rain = 0
KPD2 102027Z 16009G14KT 30/11 A3019 RMK A01 T03030112  RH  031%=      5-min Rain = 0
KPD2 102028Z 15012KT 30/11 A3019 RMK A01 T03030112  RH  031%=      5-min Rain = 0
KPD2 102029Z 16009KT 30/11 A3019 RMK A01 T03040111  RH  030%=      5-min Rain = 0
KPD2 102030Z 16009KT 30/11 A3019 RMK A01 T03040112  RH  031%=      5-min Rain = 0
KPD2 102031Z 15009KT 30/11 A3019 RMK A01 T03040111  RH  031%=      5-min Rain = 0
KPD2 102032Z 15010KT 30/11 A3019 RMK A01 T03040110  RH  030%=      5-min Rain = 0
KPD2 102033Z 17008KT 30/11 A3019 RMK A01 T03030110  RH  030%=      5-min Rain = 0
KPD2 102034Z 17007KT 30/11 A3019 RMK A01 T03030109  RH  030%=      5-min Rain = 0
KPD2 102035Z 15009KT 30/11 A3019 RMK A01 T03020111  RH  031%=      5-min Rain = 0
KPD2 102036Z 13008KT 30/11 A3019 RMK A01 T03020112  RH  031%=      5-min Rain = 0
KPD2 102037Z 14005KT 30/11 A3019 RMK A01 T03040113  RH  031%=      5-min Rain = 0
KPD2 102038Z 14006KT 31/11 A3019 RMK A01 T03060113  RH  030%=      5-min Rain = 0
KPD2 102039Z 15004KT 31/11 A3018 RMK A01 T03080113  RH  030%=      5-min Rain = 0
KPD2 102040Z 15006KT 31/11 A3018 RMK A01 T03080114  RH  030%=      5-min Rain = 0
KPD2 102041Z 13004KT 31/12 A3018 RMK A01 T03070115  RH  031%=      5-min Rain = 0
KPD2 102042Z 16003KT 31/12 A3018 RMK A01 T03070115  RH  031%=      5-min Rain = 0
KPD2 102043Z 21003KT 31/11 A3018 RMK A01 T03080113  RH  030%=      5-min Rain = 0
KPD2 102044Z 15004KT 31/11 A3018 RMK A01 T03080113  RH  030%=      5-min Rain = 0
KPD2 102045Z 12005KT 31/12 A3018 RMK A01 T03070115  RH  031%=      5-min Rain = 0
KPD2 102046Z 15007G12KT 31/11 A3018 RMK A01 T03080114  RH  030%=      5-min Rain = 0
KPD2 102047Z 16011KT 31/12 A3018 RMK A01 T03080115  RH  030%=      5-min Rain = 0
KPD2 102048Z 15009KT 31/11 A3018 RMK A01 T03080114  RH  030%=      5-min Rain = 0
KPD2 102049Z 15006KT 31/12 A3018 RMK A01 T03070115  RH  031%=      5-min Rain = 0
KPD2 102050Z 14005KT 31/11 A3018 RMK A01 T03080114  RH  030%=      5-min Rain = 0
KPD2 102051Z 13007KT 31/12 A3018 RMK A01 T03080115  RH  031%=      5-min Rain = 0
KPD2 102052Z 14007KT 31/11 A3018 RMK A01 T03100114  RH  030%=      5-min Rain = 0
KPD2 102053Z 14006KT 31/11 A3018 RMK A01 T03100114  RH  030%=      5-min Rain = 0
KPD2 102054Z 13005KT 31/11 A3018 RMK A01 T03110113  RH  030%=      5-min Rain = 0
KPD2 102055Z 14003KT 31/11 A3018 RMK A01 T03120113  RH  029%=      5-min Rain = 0
KPD2 102056Z 16006KT 31/11 A3018 RMK A01 T03120111  RH  029%=      5-min Rain = 0
KPD2 102057Z 17007KT 31/11 A3018 RMK A01 T03110112  RH  029%=      5-min Rain = 0
KPD2 102058Z 17008KT 31/11 A3018 RMK A01 T03090109  RH  029%=      5-min Rain = 0
KPD2 102059Z 17005KT 31/11 A3018 RMK A01 T03060108  RH  030%=      5-min Rain = 0
KPD2 102100Z 17007KT 30/11 A3018 RMK A01 T03040110  RH  030%=      5-min Rain = 0
KPD2 102101Z 19006G12KT 30/11 A3018 RMK A01 T03040112  RH  031%=      5-min Rain = 0
KPD2 102102Z 19006KT 30/11 A3018 RMK A01 T03040112  RH  031%=      5-min Rain = 0
KPD2 102103Z 18006KT 30/11 A3018 RMK A01 T03020111  RH  031%=      5-min Rain = 0
KPD2 102104Z 16005KT 30/11 A3018 RMK A01 T03010112  RH  031%=      5-min Rain = 0
KPD2 102105Z 14004KT 30/11 A3017 RMK A01 T03010113  RH  031%=      5-min Rain = 0
KPD2 102106Z 15005KT 30/11 A3017 RMK A01 T03030114  RH  031%=      5-min Rain = 0
KPD2 102107Z 15004G9KT 31/11 A3017 RMK A01 T03060113  RH  031%=      5-min Rain = 0
KPD2 102108Z 13003KT 31/11 A3017 RMK A01 T03070112  RH  030%=      5-min Rain = 0
KPD2 102109Z 14004KT 31/12 A3017 RMK A01 T03080116  RH  031%=      5-min Rain = 0
KPD2 102110Z 14008KT 31/11 A3017 RMK A01 T03100114  RH  030%=      5-min Rain = 0
KPD2 102111Z 16007KT 31/11 A3017 RMK A01 T03110114  RH  030%=      5-min Rain = 0
KPD2 102112Z 16007KT 31/12 A3017 RMK A01 T03110115  RH  030%=      5-min Rain = 0
KPD2 102113Z 12005KT 31/12 A3017 RMK A01 T03100116  RH  030%=      5-min Rain = 0
KPD2 102114Z 11004KT 31/12 A3017 RMK A01 T03130117  RH  030%=      5-min Rain = 0
KPD2 102115Z 16005KT 32/12 A3017 RMK A01 T03160117  RH  029%=      5-min Rain = 0
KPD2 102116Z 17008KT 32/11 A3017 RMK A01 T03170113  RH  029%=      5-min Rain = 0
KPD2 102117Z 16007KT 31/11 A3017 RMK A01 T03140113  RH  029%=      5-min Rain = 0
KPD2 102118Z 11006KT 31/11 A3017 RMK A01 T03120114  RH  030%=      5-min Rain = 0
KPD2 102119Z 13011KT 31/12 A3016 RMK A01 T03130115  RH  030%=      5-min Rain = 0
KPD2 102120Z 17010KT 32/11 A3017 RMK A01 T03150113  RH  029%=      5-min Rain = 0
KPD2 102121Z 19009KT 31/11 A3017 RMK A01 T03140111  RH  029%=      5-min Rain = 0
KPD2 102122Z 19008KT 31/11 A3017 RMK A01 T03090112  RH  030%=      5-min Rain = 0
KPD2 102123Z 20007KT 31/11 A3016 RMK A01 T03060113  RH  030%=      5-min Rain = 0
KPD2 102124Z 21004KT 31/12 A3016 RMK A01 T03050116  RH  031%=      5-min Rain = 0
KPD2 102125Z 15005KT 31/11 A3016 RMK A01 T03080113  RH  030%=      5-min Rain = 0
KPD2 102126Z 15008KT 31/12 A3016 RMK A01 T03090115  RH  030%=      5-min Rain = 0
KPD2 102127Z 14012G17KT 31/11 A3016 RMK A01 T03100113  RH  030%=      5-min Rain = 0
KPD2 102128Z 15011KT 31/11 A3016 RMK A01 T03100112  RH  030%=      5-min Rain = 0
KPD2 102129Z 13010KT 31/11 A3016 RMK A01 T03100112  RH  030%=      5-min Rain = 0
KPD2 102130Z 13011KT 31/11 A3016 RMK A01 T03090113  RH  030%=      5-min Rain = 0
KPD2 102131Z 14011KT 31/11 A3016 RMK A01 T03100113  RH  030%=      5-min Rain = 0
KPD2 102132Z 15009KT 31/11 A3016 RMK A01 T03110111  RH  029%=      5-min Rain = 0
KPD2 102133Z 15008KT 31/11 A3016 RMK A01 T03110110  RH  029%=      5-min Rain = 0
KPD2 102134Z 16009KT 31/11 A3016 RMK A01 T03100111  RH  029%=      5-min Rain = 0
KPD2 102135Z 17006KT 31/11 A3016 RMK A01 T03090110  RH  029%=      5-min Rain = 0
KPD2 102136Z 17005KT 31/11 A3016 RMK A01 T03080110  RH  030%=      5-min Rain = 0
KPD2 102137Z 15005KT 31/11 A3016 RMK A01 T03070114  RH  030%=      5-min Rain = 0
KPD2 102138Z 14006KT 31/11 A3016 RMK A01 T03080114  RH  030%=      5-min Rain = 0
KPD2 102139Z 13005KT 31/11 A3016 RMK A01 T03100113  RH  030%=      5-min Rain = 0
KPD2 102140Z 12005KT 31/11 A3016 RMK A01 T03120113  RH  030%=      5-min Rain = 0
KPD2 102141Z 15007G12KT 31/11 A3016 RMK A01 T03130114  RH  029%=      5-min Rain = 0
KPD2 102142Z 18006KT 31/11 A3016 RMK A01 T03140112  RH  029%=      5-min Rain = 0
KPD2 102143Z 16008KT 31/11 A3016 RMK A01 T03120114  RH  030%=      5-min Rain = 0
KPD2 102144Z 14007KT 31/11 A3016 RMK A01 T03100114  RH  030%=      5-min Rain = 0
KPD2 102145Z 15006KT 31/11 A3016 RMK A01 T03110113  RH  030%=      5-min Rain = 0
KPD2 102146Z 13009KT 31/12 A3016 RMK A01 T03140116  RH  030%=      5-min Rain = 0
KPD2 102147Z 14006KT 32/11 A3016 RMK A01 T03170113  RH  029%=      5-min Rain = 0
KPD2 102148Z 15012KT 32/11 A3016 RMK A01 T03170112  RH  029%=      5-min Rain = 0
KPD2 102149Z 16008KT 31/11 A3016 RMK A01 T03130111  RH  029%=      5-min Rain = 0
KPD2 102150Z 16007KT 31/11 A3016 RMK A01 T03100113  RH  030%=      5-min Rain = 0
KPD2 102151Z 12009KT 31/11 A3016 RMK A01 T03100113  RH  030%=      5-min Rain = 0
KPD2 102152Z 12007KT 31/11 A3016 RMK A01 T03110113  RH  030%=      5-min Rain = 0
KPD2 102153Z 12007KT 31/11 A3016 RMK A01 T03120111  RH  029%=      5-min Rain = 0
KPD2 102154Z 14007KT 31/11 A3016 RMK A01 T03130113  RH  029%=      5-min Rain = 0
KPD2 102155Z 14009G14KT 31/11 A3016 RMK A01 T03130111  RH  029%=      5-min Rain = 0
KPD2 102156Z 14011KT 31/11 A3016 RMK A01 T03140113  RH  029%=      5-min Rain = 0
KPD2 102157Z 14010KT 31/11 A3016 RMK A01 T03140111  RH  029%=      5-min Rain = 0
KPD2 102158Z 14011KT 31/11 A3016 RMK A01 T03110110  RH  029%=      5-min Rain = 0
KPD2 102159Z 13010KT 31/11 A3016 RMK A01 T03090110  RH  029%=      5-min Rain = 0
KPD2 102200Z 12009KT 31/11 A3016 RMK A01 T03080111  RH  030%=      5-min Rain = 0
KPD2 102201Z 14007KT 31/11 A3016 RMK A01 T03080110  RH  029%=      5-min Rain = 0
KPD2 102202Z 14006KT 31/11 A3016 RMK A01 T03090111  RH  030%=      5-min Rain = 0
KPD2 102203Z 13007KT 31/11 A3016 RMK A01 T03090111  RH  030%=      5-min Rain = 0
KPD2 102204Z 15011KT 31/11 A3016 RMK A01 T03090112  RH  030%=      5-min Rain = 0
KPD2 102205Z 14008KT 31/11 A3016 RMK A01 T03080108  RH  029%=      5-min Rain = 0
KPD2 102206Z 15009KT 31/11 A3016 RMK A01 T03060110  RH  030%=      5-min Rain = 0
KPD2 102207Z 14005KT 31/11 A3016 RMK A01 T03060109  RH  030%=      5-min Rain = 0
KPD2 102208Z 14007KT 31/11 A3016 RMK A01 T03060108  RH  029%=      5-min Rain = 0
KPD2 102209Z 15008KT 31/11 A3016 RMK A01 T03070110  RH  030%=      5-min Rain = 0
KPD2 102210Z 15010KT 31/11 A3016 RMK A01 T03090111  RH  030%=      5-min Rain = 0
KPD2 102211Z 15009KT 31/11 A3016 RMK A01 T03100110  RH  029%=      5-min Rain = 0
KPD2 102212Z 14008KT 31/11 A3016 RMK A01 T03090110  RH  029%=      5-min Rain = 0
KPD2 102213Z 13006G11KT 31/11 A3016 RMK A01 T03080111  RH  030%=      5-min Rain = 0
KPD2 102214Z 13009KT 31/11 A3016 RMK A01 T03090111  RH  029%=      5-min Rain = 0
KPD2 102215Z 15010KT 31/11 A3016 RMK A01 T03100108  RH  029%=      5-min Rain = 0
KPD2 102216Z 13007KT 31/11 A3016 RMK A01 T03090110  RH  029%=      5-min Rain = 0
KPD2 102217Z 13008KT 31/11 A3016 RMK A01 T03100109  RH  029%=      5-min Rain = 0
KPD2 102218Z 13008KT 31/11 A3016 RMK A01 T03090109  RH  029%=      5-min Rain = 0
KPD2 102219Z 13009KT 31/11 A3016 RMK A01 T03100110  RH  029%=      5-min Rain = 0
KPD2 102220Z 13008KT 31/11 A3016 RMK A01 T03110109  RH  029%=      5-min Rain = 0
KPD2 102221Z 14006KT 31/11 A3016 RMK A01 T03110110  RH  029%=      5-min Rain = 0
KPD2 102222Z 15007KT 31/11 A3016 RMK A01 T03100112  RH  030%=      5-min Rain = 0
KPD2 102223Z 14010KT 31/11 A3016 RMK A01 T03110113  RH  030%=      5-min Rain = 0
KPD2 102224Z 16008KT 31/11 A3016 RMK A01 T03110110  RH  029%=      5-min Rain = 0
KPD2 102225Z 16006KT 31/11 A3016 RMK A01 T03100110  RH  029%=      5-min Rain = 0
KPD2 102226Z 15009KT 31/11 A3016 RMK A01 T03090110  RH  029%=      5-min Rain = 0
KPD2 102227Z 15008KT 31/11 A3016 RMK A01 T03080110  RH  030%=      5-min Rain = 0
KPD2 102228Z 16005KT 31/11 A3016 RMK A01 T03080110  RH  030%=      5-min Rain = 0
KPD2 102229Z 16004KT 31/11 A3016 RMK A01 T03070110  RH  030%=      5-min Rain = 0
KPD2 102230Z 18005KT 31/11 A3016 RMK A01 T03070111  RH  030%=      5-min Rain = 0
KPD2 102231Z 18005KT 31/11 A3016 RMK A01 T03070110  RH  030%=      5-min Rain = 0
KPD2 102232Z 14005G10KT 31/11 A3016 RMK A01 T03070111  RH  030%=      5-min Rain = 0
KPD2 102233Z 14010KT 31/11 A3016 RMK A01 T03070108  RH  029%=      5-min Rain = 0
KPD2 102234Z 14008KT 31/11 A3016 RMK A01 T03080108  RH  029%=      5-min Rain = 0
KPD2 102235Z 15006KT 31/11 A3016 RMK A01 T03090107  RH  029%=      5-min Rain = 0
KPD2 102236Z 12006G12KT 31/11 A3016 RMK A01 T03070108  RH  029%=      5-min Rain = 0
KPD2 102237Z 14008KT 31/11 A3016 RMK A01 T03070108  RH  029%=      5-min Rain = 0
KPD2 102238Z 14009KT 31/11 A3016 RMK A01 T03080107  RH  029%=      5-min Rain = 0
KPD2 102239Z 14006KT 31/11 A3016 RMK A01 T03080106  RH  029%=      5-min Rain = 0
KPD2 102240Z 15007KT 31/11 A3016 RMK A01 T03080107  RH  029%=      5-min Rain = 0
KPD2 102241Z 15007KT 31/11 A3016 RMK A01 T03080107  RH  029%=      5-min Rain = 0
KPD2 102242Z 13008KT 31/11 A3016 RMK A01 T03080106  RH  029%=      5-min Rain = 0
KPD2 102243Z 13008KT 31/11 A3016 RMK A01 T03080105  RH  029%=      5-min Rain = 0
KPD2 102244Z 13009KT 31/11 A3016 RMK A01 T03080106  RH  029%=      5-min Rain = 0
KPD2 102245Z 13010KT 31/11 A3016 RMK A01 T03090107  RH  029%=      5-min Rain = 0
KPD2 102246Z 14008KT 31/11 A3016 RMK A01 T03110106  RH  028%=      5-min Rain = 0
KPD2 102247Z 16005KT 31/11 A3016 RMK A01 T03090106  RH  028%=      5-min Rain = 0
KPD2 102248Z 13008KT 31/11 A3016 RMK A01 T03080107  RH  029%=      5-min Rain = 0
KPD2 102249Z 12007KT 31/11 A3016 RMK A01 T03080108  RH  029%=      5-min Rain = 0
KPD2 102250Z 13005KT 31/11 A3016 RMK A01 T03090107  RH  029%=      5-min Rain = 0
KPD2 102251Z 13007KT 31/11 A3016 RMK A01 T03090107  RH  029%=      5-min Rain = 0
KPD2 102252Z 15008KT 31/11 A3016 RMK A01 T03090107  RH  029%=      5-min Rain = 0
KPD2 102253Z 13007KT 31/11 A3016 RMK A01 T03090105  RH  028%=      5-min Rain = 0
KPD2 102254Z 13005KT 31/11 A3016 RMK A01 T03070105  RH  029%=      5-min Rain = 0
KPD2 102255Z 15004KT 31/11 A3016 RMK A01 T03070106  RH  029%=      5-min Rain = 0
KPD2 102256Z 15007KT 31/11 A3016 RMK A01 T03070105  RH  029%=      5-min Rain = 0
KPD2 102257Z 15010KT 31/11 A3016 RMK A01 T03070107  RH  029%=      5-min Rain = 0
KPD2 102258Z 16009KT 31/10 A3016 RMK A01 T03050103  RH  029%=      5-min Rain = 0
KPD2 102259Z 15009KT 30/10 A3016 RMK A01 T03030104  RH  029%=      5-min Rain = 0
KPD2 102300Z 13013KT 30/10 A3016 RMK A01 T03020103  RH  029%=      5-min Rain = 0
KPD2 102301Z 14010KT 30/10 A3017 RMK A01 T03020101  RH  029%=      5-min Rain = 0
KPD2 102302Z 13008KT 30/10 A3016 RMK A01 T03020101  RH  029%=      5-min Rain = 0
KPD2 102303Z 15008KT 30/10 A3016 RMK A01 T03020101  RH  029%=      5-min Rain = 0
KPD2 102304Z 15010KT 30/10 A3016 RMK A01 T03020100  RH  029%=      5-min Rain = 0
KPD2 102305Z 13006KT 30/10 A3017 RMK A01 T03010100  RH  029%=      5-min Rain = 0
KPD2 102306Z 14007KT 30/10 A3017 RMK A01 T03010104  RH  029%=      5-min Rain = 0
KPD2 102307Z 14010KT 30/10 A3017 RMK A01 T03030102  RH  029%=      5-min Rain = 0
KPD2 102308Z 15010KT 30/10 A3017 RMK A01 T03030099  RH  028%=      5-min Rain = 0
KPD2 102309Z 14007KT 30/10 A3016 RMK A01 T03030100  RH  028%=      5-min Rain = 0
KPD2 102310Z 15006KT 30/10 A3016 RMK A01 T03020101  RH  029%=      5-min Rain = 0
KPD2 102311Z 13008KT 30/10 A3016 RMK A01 T03020101  RH  029%=      5-min Rain = 0
KPD2 102312Z 14009KT 30/10 A3016 RMK A01 T03030101  RH  029%=      5-min Rain = 0
KPD2 102313Z 15007KT 30/10 A3016 RMK A01 T03030100  RH  028%=      5-min Rain = 0
KPD2 102314Z 14007KT 30/10 A3016 RMK A01 T03030102  RH  029%=      5-min Rain = 0
KPD2 102315Z 14005KT 30/10 A3016 RMK A01 T03030100  RH  028%=      5-min Rain = 0
KPD2 102316Z 14007KT 30/10 A3016 RMK A01 T03040101  RH  028%=      5-min Rain = 0
KPD2 102317Z 15010KT 30/10 A3016 RMK A01 T03040099  RH  028%=      5-min Rain = 0
KPD2 102318Z 14009KT 30/10 A3016 RMK A01 T03020097  RH  028%=      5-min Rain = 0
KPD2 102319Z 13007KT 30/10 A3016 RMK A01 T03010096  RH  028%=      5-min Rain = 0
KPD2 102320Z 15008KT 30/10 A3016 RMK A01 T03000096  RH  028%=      5-min Rain = 0
KPD2 102321Z 14007KT 30/10 A3016 RMK A01 T03000095  RH  028%=      5-min Rain = 0
KPD2 102322Z 12006KT 30/10 A3016 RMK A01 T03000098  RH  029%=      5-min Rain = 0
KPD2 102323Z 13007KT 30/10 A3016 RMK A01 T03010099  RH  029%=      5-min Rain = 0
KPD2 102324Z 14005KT 30/10 A3016 RMK A01 T03020100  RH  029%=      5-min Rain = 0
KPD2 102325Z 14007KT 30/10 A3016 RMK A01 T03020099  RH  028%=      5-min Rain = 0
KPD2 102326Z 16009KT 30/10 A3016 RMK A01 T03030097  RH  028%=      5-min Rain = 0
KPD2 102327Z 16006KT 30/10 A3016 RMK A01 T03020095  RH  028%=      5-min Rain = 0
KPD2 102328Z 16005KT 30/10 A3016 RMK A01 T03010096  RH  028%=      5-min Rain = 0
KPD2 102329Z 16006KT 30/10 A3016 RMK A01 T03000098  RH  028%=      5-min Rain = 0
KPD2 102330Z 15006KT 30/10 A3016 RMK A01 T03000098  RH  028%=      5-min Rain = 0
KPD2 102331Z 15007KT 30/09 A3016 RMK A01 T03000094  RH  028%=      5-min Rain = 0
KPD2 102332Z 17007KT 30/09 A3016 RMK A01 T02990093  RH  028%=      5-min Rain = 0
KPD2 102333Z 15007KT 30/10 A3017 RMK A01 T02980095  RH  028%=      5-min Rain = 0
KPD2 102334Z 16009KT 30/09 A3017 RMK A01 T02980092  RH  028%=      5-min Rain = 0
KPD2 102335Z 16009KT 30/09 A3017 RMK A01 T02980090  RH  027%=      5-min Rain = 0
KPD2 102336Z 15008KT 30/09 A3017 RMK A01 T02970088  RH  027%=      5-min Rain = 0
KPD2 102337Z 16006KT 30/09 A3017 RMK A01 T02970089  RH  027%=      5-min Rain = 0
KPD2 102338Z 18006KT 30/09 A3017 RMK A01 T02960090  RH  028%=      5-min Rain = 0
KPD2 102339Z 16008KT 30/09 A3017 RMK A01 T02960088  RH  027%=      5-min Rain = 0
KPD2 102340Z 16007KT 30/09 A3017 RMK A01 T02950087  RH  027%=      5-min Rain = 0
KPD2 102341Z 16007KT 30/09 A3017 RMK A01 T02950088  RH  027%=      5-min Rain = 0
KPD2 102342Z 17006KT 30/09 A3017 RMK A01 T02950092  RH  028%=      5-min Rain = 0
KPD2 102343Z 17007KT 30/09 A3017 RMK A01 T02950094  RH  029%=      5-min Rain = 0
KPD2 102344Z 16007KT 30/09 A3017 RMK A01 T02950094  RH  029%=      5-min Rain = 0
KPD2 102345Z 16007KT 29/10 A3017 RMK A01 T02940096  RH  029%=      5-min Rain = 0
KPD2 102346Z 16007KT 29/10 A3017 RMK A01 T02940095  RH  029%=      5-min Rain = 0
KPD2 102347Z 16006KT 29/09 A3017 RMK A01 T02930094  RH  029%=      5-min Rain = 0
KPD2 102348Z 15006KT 29/10 A3017 RMK A01 T02930096  RH  029%=      5-min Rain = 0
KPD2 102349Z 16006KT 29/10 A3017 RMK A01 T02930095  RH  029%=      5-min Rain = 0
KPD2 102350Z 16005KT 29/10 A3017 RMK A01 T02940095  RH  029%=      5-min Rain = 0
KPD2 102351Z 16005KT 29/10 A3017 RMK A01 T02940095  RH  029%=      5-min Rain = 0
KPD2 102352Z 14005KT 29/09 A3016 RMK A01 T02940094  RH  029%=      5-min Rain = 0
KPD2 102353Z 14004KT 29/09 A3016 RMK A01 T02930093  RH  029%=      5-min Rain = 0
KPD2 102354Z 15005KT 29/10 A3016 RMK A01 T02930095  RH  029%=      5-min Rain = 0
KPD2 102355Z 14007KT 29/10 A3016 RMK A01 T02930096  RH  029%=      5-min Rain = 0
KPD2 102356Z 15009KT 29/10 A3016 RMK A01 T02930095  RH  029%=      5-min Rain = 0
KPD2 102357Z 15008KT 29/10 A3016 RMK A01 T02930095  RH  029%=      5-min Rain = 0
KPD2 102358Z 14007KT 29/10 A3017 RMK A01 T02920095  RH  029%=      5-min Rain = 0
KPD2 102359Z 14006KT 29/10 A3016 RMK A01 T02920096  RH  030%=      5-min Rain = 0
KPD2 110000Z 15006KT 29/10 A3016 RMK A01 T02910096  RH  030%=      5-min Rain = 0
KPD2 110001Z 16004KT 29/10 A3017 RMK A01 T02910096  RH  030%=      5-min Rain = 0
KPD2 110002Z 17004KT 29/10 A3017 RMK A01 T02910097  RH  030%=      5-min Rain = 0
KPD2 110003Z 17005KT 29/10 A3017 RMK A01 T02900097  RH  030%=      5-min Rain = 0
KPD2 110004Z 15008KT 29/10 A3017 RMK A01 T02890097  RH  030%=      5-min Rain = 0
KPD2 110005Z 15009KT 29/10 A3017 RMK A01 T02890097  RH  030%=      5-min Rain = 0
KPD2 110006Z 15007KT 29/10 A3016 RMK A01 T02890097  RH  030%=      5-min Rain = 0
KPD2 110007Z 15007KT 29/10 A3016 RMK A01 T02890097  RH  030%=      5-min Rain = 0
KPD2 110008Z 16008KT 29/10 A3017 RMK A01 T02890098  RH  030%=      5-min Rain = 0
KPD2 110009Z 16006KT 29/10 A3017 RMK A01 T02890098  RH  030%=      5-min Rain = 0
KPD2 110010Z 16007KT 29/10 A3017 RMK A01 T02880098  RH  031%=      5-min Rain = 0
KPD2 110011Z 15007KT 29/10 A3016 RMK A01 T02880098  RH  031%=      5-min Rain = 0
KPD2 110012Z 17007KT 29/10 A3016 RMK A01 T02880098  RH  031%=      5-min Rain = 0
KPD2 110013Z 17009KT 29/10 A3016 RMK A01 T02870098  RH  031%=      5-min Rain = 0
KPD2 110014Z 16009KT 29/10 A3016 RMK A01 T02870098  RH  031%=      5-min Rain = 0
KPD2 110015Z 16008KT 29/10 A3016 RMK A01 T02870098  RH  031%=      5-min Rain = 0
KPD2 110016Z 18005KT 29/10 A3016 RMK A01 T02870098  RH  031%=      5-min Rain = 0
KPD2 110017Z 18007KT 29/10 A3016 RMK A01 T02860098  RH  031%=      5-min Rain = 0
KPD2 110018Z 16006KT 29/10 A3016 RMK A01 T02860099  RH  031%=      5-min Rain = 0
KPD2 110019Z 14005KT 29/10 A3016 RMK A01 T02860101  RH  032%=      5-min Rain = 0
KPD2 110020Z 14006KT 29/10 A3016 RMK A01 T02850102  RH  032%=      5-min Rain = 0
KPD2 110021Z 14007KT 29/10 A3016 RMK A01 T02850102  RH  032%=      5-min Rain = 0
KPD2 110022Z 15006KT 28/10 A3016 RMK A01 T02840102  RH  032%=      5-min Rain = 0
KPD2 110023Z 15008KT 28/10 A3016 RMK A01 T02840103  RH  032%=      5-min Rain = 0
KPD2 110024Z 15008KT 28/10 A3016 RMK A01 T02830104  RH  033%=      5-min Rain = 0
KPD2 110025Z 15008KT 28/11 A3016 RMK A01 T02820107  RH  034%=      5-min Rain = 0
KPD2 110026Z 15006KT 28/11 A3016 RMK A01 T02810108  RH  034%=      5-min Rain = 0
KPD2 110027Z 15007KT 28/11 A3016 RMK A01 T02800108  RH  034%=      5-min Rain = 0
KPD2 110028Z 14009KT 28/11 A3016 RMK A01 T02800110  RH  035%=      5-min Rain = 0
KPD2 110029Z 14009KT 28/11 A3016 RMK A01 T02790112  RH  036%=      5-min Rain = 0
KPD2 110030Z 13010KT 28/11 A3017 RMK A01 T02770113  RH  036%=      5-min Rain = 0
KPD2 110031Z 14009KT 28/11 A3016 RMK A01 T02760114  RH  036%=      5-min Rain = 0
KPD2 110032Z 14007KT 28/11 A3017 RMK A01 T02750114  RH  037%=      5-min Rain = 0
KPD2 110033Z 13008KT 28/12 A3017 RMK A01 T02750115  RH  037%=      5-min Rain = 0
KPD2 110034Z 13007KT 27/12 A3017 RMK A01 T02740115  RH  037%=      5-min Rain = 0
KPD2 110035Z 14009KT 27/12 A3017 RMK A01 T02730115  RH  037%=      5-min Rain = 0
KPD2 110036Z 14009KT 27/12 A3017 RMK A01 T02730115  RH  037%=      5-min Rain = 0
KPD2 110037Z 14008KT 27/12 A3017 RMK A01 T02720115  RH  037%=      5-min Rain = 0
KPD2 110038Z 14008KT 27/12 A3017 RMK A01 T02720115  RH  038%=      5-min Rain = 0
KPD2 110039Z 14008KT 27/12 A3017 RMK A01 T02710115  RH  038%=      5-min Rain = 0
KPD2 110040Z 14008G13KT 27/12 A3017 RMK A01 T02710115  RH  038%=      5-min Rain = 0
KPD2 110041Z 14010KT 27/11 A3017 RMK A01 T02700114  RH  038%=      5-min Rain = 0
KPD2 110042Z 13008KT 27/12 A3017 RMK A01 T02690115  RH  038%=      5-min Rain = 0
KPD2 110043Z 14007KT 27/12 A3017 RMK A01 T02680115  RH  038%=      5-min Rain = 0
KPD2 110044Z 14009KT 27/11 A3017 RMK A01 T02670114  RH  038%=      5-min Rain = 0
KPD2 110045Z 14009KT 27/11 A3017 RMK A01 T02670114  RH  038%=      5-min Rain = 0
KPD2 110046Z 14010KT 27/11 A3017 RMK A01 T02660114  RH  039%=      5-min Rain = 0
KPD2 110047Z 15008KT 27/11 A3017 RMK A01 T02660114  RH  039%=      5-min Rain = 0
KPD2 110048Z 14008KT 27/11 A3017 RMK A01 T02650114  RH  039%=      5-min Rain = 0
KPD2 110049Z 14007KT 26/11 A3017 RMK A01 T02640114  RH  039%=      5-min Rain = 0
KPD2 110050Z 14005KT 26/11 A3017 RMK A01 T02640114  RH  039%=      5-min Rain = 0
KPD2 110051Z 14007KT 26/11 A3017 RMK A01 T02630114  RH  039%=      5-min Rain = 0
KPD2 110052Z 14007KT 26/11 A3017 RMK A01 T02620114  RH  039%=      5-min Rain = 0
KPD2 110053Z 14006KT 26/11 A3017 RMK A01 T02620114  RH  040%=      5-min Rain = 0
KPD2 110054Z 14007KT 26/11 A3017 RMK A01 T02610114  RH  040%=      5-min Rain = 0
KPD2 110055Z 14006KT 26/11 A3017 RMK A01 T02610114  RH  040%=      5-min Rain = 0
KPD2 110056Z 14008KT 26/11 A3017 RMK A01 T02600114  RH  040%=      5-min Rain = 0
KPD2 110057Z 14006KT 26/11 A3017 RMK A01 T02600114  RH  040%=      5-min Rain = 0
KPD2 110058Z 14009KT 26/11 A3017 RMK A01 T02600114  RH  040%=      5-min Rain = 0
KPD2 110059Z 14009KT 26/11 A3017 RMK A01 T02590114  RH  040%=      5-min Rain = 0
KPD2 110100Z 14008KT 26/11 A3017 RMK A01 T02590114  RH  040%=      5-min Rain = 0
KPD2 110101Z 14008KT 26/11 A3017 RMK A01 T02580114  RH  040%=      5-min Rain = 0
KPD2 110102Z 14005KT 26/11 A3017 RMK A01 T02580114  RH  040%=      5-min Rain = 0
KPD2 110103Z 14007KT 26/11 A3017 RMK A01 T02570114  RH  041%=      5-min Rain = 0
KPD2 110104Z 14007KT 26/11 A3017 RMK A01 T02570114  RH  041%=      5-min Rain = 0
KPD2 110105Z 14008KT 26/11 A3017 RMK A01 T02560114  RH  041%=      5-min Rain = 0
KPD2 110106Z 14007KT 26/11 A3017 RMK A01 T02560114  RH  041%=      5-min Rain = 0
KPD2 110107Z 14007KT 26/11 A3017 RMK A01 T02560114  RH  041%=      5-min Rain = 0
KPD2 110108Z 14008KT 26/11 A3017 RMK A01 T02550113  RH  041%=      5-min Rain = 0
KPD2 110109Z 14008KT 26/11 A3017 RMK A01 T02550114  RH  041%=      5-min Rain = 0
KPD2 110110Z 15006KT 26/11 A3017 RMK A01 T02550114  RH  041%=      5-min Rain = 0
KPD2 110111Z 15006KT 25/11 A3017 RMK A01 T02540114  RH  041%=      5-min Rain = 0
KPD2 110112Z 14007KT 25/11 A3018 RMK A01 T02540113  RH  041%=      5-min Rain = 0
KPD2 110113Z 14007KT 25/11 A3018 RMK A01 T02530113  RH  041%=      5-min Rain = 0
KPD2 110114Z 14007KT 25/11 A3018 RMK A01 T02530113  RH  042%=      5-min Rain = 0
KPD2 110115Z 14006KT 25/11 A3018 RMK A01 T02530114  RH  042%=      5-min Rain = 0
KPD2 110116Z 14006KT 25/11 A3018 RMK A01 T02520113  RH  042%=      5-min Rain = 0
KPD2 110117Z 14005KT 25/11 A3018 RMK A01 T02510113  RH  042%=      5-min Rain = 0
KPD2 110118Z 15006KT 25/11 A3018 RMK A01 T02510113  RH  042%=      5-min Rain = 0
KPD2 110119Z 15006KT 25/11 A3018 RMK A01 T02500113  RH  042%=      5-min Rain = 0
KPD2 110120Z 14006KT 25/11 A3018 RMK A01 T02500113  RH  042%=      5-min Rain = 0
KPD2 110121Z 15007KT 25/11 A3018 RMK A01 T02490113  RH  042%=      5-min Rain = 0
KPD2 110122Z 15006KT 25/11 A3018 RMK A01 T02490113  RH  042%=      5-min Rain = 0
KPD2 110123Z 15006KT 25/11 A3018 RMK A01 T02490113  RH  042%=      5-min Rain = 0
KPD2 110124Z 15006KT 25/11 A3018 RMK A01 T02490113  RH  042%=      5-min Rain = 0
KPD2 110125Z 15005KT 25/11 A3018 RMK A01 T02490113  RH  043%=      5-min Rain = 0
KPD2 110126Z 14005KT 25/11 A3018 RMK A01 T02480112  RH  043%=      5-min Rain = 0
KPD2 110127Z 15006KT 25/11 A3018 RMK A01 T02470112  RH  043%=      5-min Rain = 0
KPD2 110128Z 14006KT 25/11 A3018 RMK A01 T02460112  RH  043%=      5-min Rain = 0
KPD2 110129Z 15005KT 25/11 A3018 RMK A01 T02460112  RH  043%=      5-min Rain = 0
KPD2 110130Z 15005KT 25/11 A3018 RMK A01 T02460112  RH  043%=      5-min Rain = 0
KPD2 110131Z 14005KT 25/11 A3018 RMK A01 T02450112  RH  043%=      5-min Rain = 0
KPD2 110132Z 14005KT 25/11 A3018 RMK A01 T02450112  RH  043%=      5-min Rain = 0
KPD2 110133Z 15006KT 25/11 A3018 RMK A01 T02450112  RH  043%=      5-min Rain = 0
KPD2 110134Z 15005KT 24/11 A3018 RMK A01 T02440112  RH  044%=      5-min Rain = 0
KPD2 110135Z 16006KT 24/11 A3018 RMK A01 T02430112  RH  044%=      5-min Rain = 0
KPD2 110136Z 15005KT 24/11 A3018 RMK A01 T02430112  RH  044%=      5-min Rain = 0
KPD2 110137Z 15005KT 24/11 A3018 RMK A01 T02430112  RH  044%=      5-min Rain = 0
KPD2 110138Z 14004KT 24/11 A3018 RMK A01 T02430112  RH  044%=      5-min Rain = 0
KPD2 110139Z 15005KT 24/11 A3018 RMK A01 T02430112  RH  044%=      5-min Rain = 0
KPD2 110140Z 14005KT 24/11 A3018 RMK A01 T02420112  RH  044%=      5-min Rain = 0
KPD2 110141Z 14005KT 24/11 A3018 RMK A01 T02420112  RH  044%=      5-min Rain = 0
KPD2 110142Z 14005KT 24/11 A3018 RMK A01 T02420112  RH  044%=      5-min Rain = 0
KPD2 110143Z 14006KT 24/11 A3018 RMK A01 T02420112  RH  044%=      5-min Rain = 0
KPD2 110144Z 14005KT 24/11 A3018 RMK A01 T02420111  RH  044%=      5-min Rain = 0
KPD2 110145Z 13004KT 24/11 A3018 RMK A01 T02420111  RH  044%=      5-min Rain = 0
KPD2 110146Z 14005KT 24/11 A3018 RMK A01 T02410112  RH  044%=      5-min Rain = 0
KPD2 110147Z 14005KT 24/11 A3018 RMK A01 T02410112  RH  044%=      5-min Rain = 0
KPD2 110148Z 13005KT 24/11 A3018 RMK A01 T02400112  RH  044%=      5-min Rain = 0
KPD2 110149Z 13005KT 24/11 A3018 RMK A01 T02400112  RH  044%=      5-min Rain = 0
KPD2 110150Z 14005KT 24/11 A3018 RMK A01 T02390112  RH  045%=      5-min Rain = 0
KPD2 110151Z 13004KT 24/11 A3018 RMK A01 T02380111  RH  045%=      5-min Rain = 0
KPD2 110152Z 14004KT 24/11 A3018 RMK A01 T02380112  RH  045%=      5-min Rain = 0
KPD2 110153Z 14004KT 24/11 A3019 RMK A01 T02370111  RH  045%=      5-min Rain = 0
KPD2 110154Z 14005KT 24/11 A3019 RMK A01 T02370111  RH  045%=      5-min Rain = 0
KPD2 110155Z 14005KT 24/11 A3019 RMK A01 T02370111  RH  045%=      5-min Rain = 0
KPD2 110156Z 13005KT 24/11 A3019 RMK A01 T02360111  RH  045%=      5-min Rain = 0
KPD2 110157Z 14004KT 24/11 A3019 RMK A01 T02360111  RH  045%=      5-min Rain = 0
KPD2 110158Z 13004KT 24/11 A3019 RMK A01 T02350111  RH  046%=      5-min Rain = 0
KPD2 110159Z 13004KT 24/11 A3019 RMK A01 T02350111  RH  046%=      5-min Rain = 0
KPD2 110200Z 14004KT 23/11 A3019 RMK A01 T02340111  RH  046%=      5-min Rain = 0
KPD2 110201Z 14004KT 23/11 A3019 RMK A01 T02340111  RH  046%=      5-min Rain = 0
KPD2 110202Z 13005KT 23/11 A3019 RMK A01 T02340111  RH  046%=      5-min Rain = 0
KPD2 110203Z 13005KT 23/11 A3019 RMK A01 T02340111  RH  046%=      5-min Rain = 0
KPD2 110204Z 14004KT 23/11 A3019 RMK A01 T02340111  RH  046%=      5-min Rain = 0
KPD2 110205Z 13005KT 23/11 A3019 RMK A01 T02340111  RH  046%=      5-min Rain = 0
KPD2 110206Z 14005KT 23/11 A3019 RMK A01 T02340111  RH  046%=      5-min Rain = 0
KPD2 110207Z 14005KT 23/11 A3019 RMK A01 T02340110  RH  046%=      5-min Rain = 0
KPD2 110208Z 14004KT 24/11 A3019 RMK A01 T02350110  RH  046%=      5-min Rain = 0
KPD2 110209Z 14004KT 24/11 A3019 RMK A01 T02350111  RH  045%=      5-min Rain = 0
KPD2 110210Z 14005KT 24/11 A3019 RMK A01 T02350111  RH  046%=      5-min Rain = 0
KPD2 110211Z 14005KT 23/11 A3019 RMK A01 T02340110  RH  046%=      5-min Rain = 0
KPD2 110212Z 14005KT 23/11 A3019 RMK A01 T02340111  RH  046%=      5-min Rain = 0
KPD2 110213Z 14005KT 23/11 A3019 RMK A01 T02340111  RH  046%=      5-min Rain = 0
KPD2 110214Z 14005KT 23/11 A3019 RMK A01 T02340111  RH  046%=      5-min Rain = 0
KPD2 110215Z 13005KT 23/11 A3019 RMK A01 T02330111  RH  046%=      5-min Rain = 0
KPD2 110216Z 13005KT 23/11 A3019 RMK A01 T02330111  RH  046%=      5-min Rain = 0
KPD2 110217Z 13005KT 23/11 A3019 RMK A01 T02320111  RH  046%=      5-min Rain = 0
KPD2 110218Z 13005KT 23/11 A3019 RMK A01 T02320111  RH  046%=      5-min Rain = 0
KPD2 110219Z 13005KT 23/11 A3019 RMK A01 T02310111  RH  047%=      5-min Rain = 0
KPD2 110220Z 13005KT 23/11 A302 RMK A01 T02300111  RH  047%=      5-min Rain = 0
KPD2 110221Z 12005KT 23/11 A302 RMK A01 T02290110  RH  047%=      5-min Rain = 0
KPD2 110222Z 13005KT 23/11 A302 RMK A01 T02280110  RH  047%=      5-min Rain = 0
KPD2 110223Z 13005KT 23/11 A302 RMK A01 T02280110  RH  047%=      5-min Rain = 0
KPD2 110224Z 12005KT 23/11 A302 RMK A01 T02280110  RH  047%=      5-min Rain = 0
KPD2 110225Z 12004KT 23/11 A302 RMK A01 T02270110  RH  047%=      5-min Rain = 0
KPD2 110226Z 12005KT 23/11 A302 RMK A01 T02270110  RH  048%=      5-min Rain = 0
KPD2 110227Z 12004KT 23/11 A302 RMK A01 T02260110  RH  048%=      5-min Rain = 0
KPD2 110228Z 12004KT 23/11 A302 RMK A01 T02260110  RH  048%=      5-min Rain = 0
KPD2 110229Z 13004KT 23/11 A302 RMK A01 T02260110  RH  048%=      5-min Rain = 0
KPD2 110230Z 13004KT 23/11 A302 RMK A01 T02260110  RH  048%=      5-min Rain = 0
KPD2 110231Z 13004KT 23/11 A302 RMK A01 T02260110  RH  048%=      5-min Rain = 0
KPD2 110232Z 12005KT 23/11 A302 RMK A01 T02260110  RH  048%=      5-min Rain = 0
KPD2 110233Z 14004KT 23/11 A302 RMK A01 T02260110  RH  048%=      5-min Rain = 0
KPD2 110234Z 13004KT 23/11 A302 RMK A01 T02250109  RH  048%=      5-min Rain = 0
KPD2 110235Z 14004KT 23/11 A302 RMK A01 T02260110  RH  048%=      5-min Rain = 0
KPD2 110236Z 13005KT 23/11 A302 RMK A01 T02260110  RH  048%=      5-min Rain = 0
KPD2 110237Z 14004KT 23/11 A302 RMK A01 T02260110  RH  048%=      5-min Rain = 0
KPD2 110238Z 14004KT 23/11 A302 RMK A01 T02260110  RH  048%=      5-min Rain = 0
KPD2 110239Z 14004KT 23/11 A302 RMK A01 T02260110  RH  048%=      5-min Rain = 0
KPD2 110240Z 15004KT 23/11 A302 RMK A01 T02260110  RH  048%=      5-min Rain = 0
KPD2 110241Z 15004KT 23/11 A302 RMK A01 T02260111  RH  048%=      5-min Rain = 0
KPD2 110242Z 15005KT 23/11 A302 RMK A01 T02250111  RH  048%=      5-min Rain = 0
KPD2 110243Z 14005KT 23/11 A302 RMK A01 T02250111  RH  048%=      5-min Rain = 0
KPD2 110244Z 14004KT 23/11 A302 RMK A01 T02260110  RH  048%=      5-min Rain = 0
KPD2 110245Z 14004KT 23/11 A302 RMK A01 T02250110  RH  048%=      5-min Rain = 0
KPD2 110246Z 15003KT 23/11 A302 RMK A01 T02260110  RH  048%=      5-min Rain = 0
KPD2 110247Z 14004KT 23/11 A3021 RMK A01 T02250110  RH  048%=      5-min Rain = 0
KPD2 110248Z 14004KT 23/11 A3021 RMK A01 T02250110  RH  048%=      5-min Rain = 0
KPD2 110249Z 15004KT 23/11 A3021 RMK A01 T02250110  RH  048%=      5-min Rain = 0
KPD2 110250Z 15004KT 23/11 A3021 RMK A01 T02250110  RH  048%=      5-min Rain = 0
KPD2 110251Z 14004KT 23/11 A3021 RMK A01 T02250110  RH  048%=      5-min Rain = 0
KPD2 110252Z 14004KT 23/11 A3021 RMK A01 T02250110  RH  048%=      5-min Rain = 0
KPD2 110253Z 14004KT 23/11 A3021 RMK A01 T02250110  RH  048%=      5-min Rain = 0
KPD2 110254Z 14004KT 23/11 A3021 RMK A01 T02250110  RH  048%=      5-min Rain = 0
KPD2 110255Z 14005KT 23/11 A3021 RMK A01 T02250110  RH  048%=      5-min Rain = 0
KPD2 110256Z 14005KT 22/11 A3021 RMK A01 T02240110  RH  048%=      5-min Rain = 0
KPD2 110257Z 14004KT 22/11 A3021 RMK A01 T02240110  RH  048%=      5-min Rain = 0
KPD2 110258Z 14004KT 22/11 A3021 RMK A01 T02230110  RH  049%=      5-min Rain = 0
KPD2 110259Z 14004KT 22/11 A3021 RMK A01 T02230110  RH  049%=      5-min Rain = 0
KPD2 110300Z 14004KT 22/11 A3021 RMK A01 T02220110  RH  049%=      5-min Rain = 0
KPD2 110301Z 14004KT 22/11 A3021 RMK A01 T02210110  RH  049%=      5-min Rain = 0
KPD2 110302Z 13004KT 22/11 A3021 RMK A01 T02210110  RH  049%=      5-min Rain = 0
KPD2 110303Z 13003KT 22/11 A3021 RMK A01 T02200110  RH  050%=      5-min Rain = 0
KPD2 110304Z 13003KT 22/11 A3021 RMK A01 T02190110  RH  050%=      5-min Rain = 0
KPD2 110305Z 13003KT 22/11 A3021 RMK A01 T02180110  RH  050%=      5-min Rain = 0
KPD2 110306Z 13003KT 22/11 A3021 RMK A01 T02170110  RH  050%=      5-min Rain = 0
KPD2 110307Z 13003KT 22/11 A3021 RMK A01 T02160110  RH  051%=      5-min Rain = 0
KPD2 110308Z 14003KT 22/11 A3021 RMK A01 T02150110  RH  051%=      5-min Rain = 0
KPD2 110309Z 14003KT 22/11 A3021 RMK A01 T02150110  RH  051%=      5-min Rain = 0
KPD2 110310Z 13003KT 21/11 A3021 RMK A01 T02140109  RH  051%=      5-min Rain = 0
KPD2 110311Z 12003KT 21/11 A3021 RMK A01 T02130109  RH  051%=      5-min Rain = 0
KPD2 110312Z 12004KT 21/11 A3021 RMK A01 T02120110  RH  052%=      5-min Rain = 0
KPD2 110313Z 12004KT 21/11 A3021 RMK A01 T02120110  RH  052%=      5-min Rain = 0
KPD2 110314Z 13003KT 21/11 A3021 RMK A01 T02110109  RH  052%=      5-min Rain = 0
KPD2 110315Z 13003KT 21/11 A3021 RMK A01 T02100109  RH  052%=      5-min Rain = 0
KPD2 110316Z 13003KT 21/11 A3021 RMK A01 T02100109  RH  052%=      5-min Rain = 0
KPD2 110317Z 12003KT 21/11 A3021 RMK A01 T02090109  RH  053%=      5-min Rain = 0
KPD2 110318Z 13003KT 21/11 A3021 RMK A01 T02080109  RH  053%=      5-min Rain = 0
KPD2 110319Z 13003KT 21/11 A3022 RMK A01 T02080109  RH  053%=      5-min Rain = 0
KPD2 110320Z 14003KT 21/11 A3022 RMK A01 T02080109  RH  053%=      5-min Rain = 0
KPD2 110321Z 14003KT 21/11 A3022 RMK A01 T02080109  RH  053%=      5-min Rain = 0
KPD2 110322Z 13003KT 21/11 A3022 RMK A01 T02070109  RH  053%=      5-min Rain = 0
KPD2 110323Z 13003KT 21/11 A3022 RMK A01 T02080109  RH  053%=      5-min Rain = 0
KPD2 110324Z 13004KT 21/11 A3022 RMK A01 T02070109  RH  053%=      5-min Rain = 0
KPD2 110325Z 13003KT 21/11 A3022 RMK A01 T02070109  RH  053%=      5-min Rain = 0
KPD2 110326Z 13003KT 21/11 A3022 RMK A01 T02070110  RH  054%=      5-min Rain = 0
KPD2 110327Z 14003KT 21/11 A3022 RMK A01 T02060109  RH  054%=      5-min Rain = 0
KPD2 110328Z 13004KT 21/11 A3022 RMK A01 T02060109  RH  054%=      5-min Rain = 0
KPD2 110329Z 13003KT 21/11 A3022 RMK A01 T02050109  RH  054%=      5-min Rain = 0
KPD2 110330Z 13002KT 21/11 A3022 RMK A01 T02060110  RH  054%=      5-min Rain = 0
KPD2 110331Z 14003KT 21/11 A3022 RMK A01 T02050110  RH  054%=      5-min Rain = 0
KPD2 110332Z 14003KT 21/11 A3022 RMK A01 T02050109  RH  054%=      5-min Rain = 0
KPD2 110333Z 13003KT 21/11 A3022 RMK A01 T02050109  RH  054%=      5-min Rain = 0
KPD2 110334Z 14003KT 21/11 A3022 RMK A01 T02050109  RH  054%=      5-min Rain = 0
KPD2 110335Z 14003KT 21/11 A3022 RMK A01 T02050109  RH  054%=      5-min Rain = 0
KPD2 110336Z 14003KT 21/11 A3022 RMK A01 T02050109  RH  054%=      5-min Rain = 0
KPD2 110337Z 14003KT 21/11 A3022 RMK A01 T02050109  RH  054%=      5-min Rain = 0
KPD2 110338Z 14003KT 21/11 A3022 RMK A01 T02050110  RH  054%=      5-min Rain = 0
KPD2 110339Z 14003KT 21/11 A3022 RMK A01 T02050110  RH  054%=      5-min Rain = 0
KPD2 110340Z 13003KT 21/11 A3022 RMK A01 T02050109  RH  054%=      5-min Rain = 0
KPD2 110341Z 13003KT 21/11 A3022 RMK A01 T02050110  RH  054%=      5-min Rain = 0
KPD2 110342Z 13003KT 21/11 A3022 RMK A01 T02050110  RH  054%=      5-min Rain = 0
KPD2 110343Z 13003KT 21/11 A3022 RMK A01 T02050110  RH  054%=      5-min Rain = 0
KPD2 110344Z 13003KT 20/11 A3022 RMK A01 T02040109  RH  055%=      5-min Rain = 0
KPD2 110345Z 13003KT 20/11 A3022 RMK A01 T02040109  RH  055%=      5-min Rain = 0
KPD2 110346Z 13003KT 20/11 A3022 RMK A01 T02030109  RH  055%=      5-min Rain = 0
KPD2 110347Z 13003KT 20/11 A3022 RMK A01 T02030109  RH  055%=      5-min Rain = 0
KPD2 110348Z 13003KT 20/11 A3022 RMK A01 T02020109  RH  055%=      5-min Rain = 0
KPD2 110349Z 13003KT 20/11 A3022 RMK A01 T02020109  RH  055%=      5-min Rain = 0
KPD2 110350Z 12004KT 20/11 A3022 RMK A01 T02020108  RH  055%=      5-min Rain = 0
KPD2 110351Z 13003KT 20/11 A3022 RMK A01 T02020109  RH  055%=      5-min Rain = 0
KPD2 110352Z 14003KT 20/11 A3022 RMK A01 T02020109  RH  055%=      5-min Rain = 0
KPD2 110353Z 13003KT 20/11 A3022 RMK A01 T02020109  RH  055%=      5-min Rain = 0
KPD2 110354Z 14004KT 20/11 A3022 RMK A01 T02020109  RH  055%=      5-min Rain = 0
KPD2 110355Z 14004KT 20/11 A3022 RMK A01 T02020109  RH  055%=      5-min Rain = 0
KPD2 110356Z 13004KT 20/11 A3022 RMK A01 T02030109  RH  055%=      5-min Rain = 0
KPD2 110357Z 13003KT 20/11 A3022 RMK A01 T02020109  RH  055%=      5-min Rain = 0
KPD2 110358Z 13003KT 20/11 A3022 RMK A01 T02020109  RH  055%=      5-min Rain = 0
KPD2 110359Z 13004KT 20/11 A3022 RMK A01 T02030109  RH  055%=      5-min Rain = 0
KPD2 110400Z 13004KT 20/11 A3022 RMK A01 T02020108  RH  055%=      5-min Rain = 0
KPD2 110401Z 14004KT 20/11 A3022 RMK A01 T02030109  RH  055%=      5-min Rain = 0
KPD2 110402Z 14004KT 20/11 A3022 RMK A01 T02030109  RH  055%=      5-min Rain = 0
KPD2 110403Z 13004KT 20/11 A3022 RMK A01 T02020108  RH  055%=      5-min Rain = 0
KPD2 110404Z 14004KT 20/11 A3022 RMK A01 T02030109  RH  055%=      5-min Rain = 0
KPD2 110405Z 14003KT 20/11 A3022 RMK A01 T02030109  RH  055%=      5-min Rain = 0
KPD2 110406Z 14003KT 20/11 A3022 RMK A01 T02030109  RH  055%=      5-min Rain = 0
KPD2 110407Z 14002KT 20/11 A3022 RMK A01 T02030109  RH  055%=      5-min Rain = 0
KPD2 110408Z 14003KT 20/11 A3022 RMK A01 T02030109  RH  055%=      5-min Rain = 0
KPD2 110409Z 14003KT 20/11 A3022 RMK A01 T02030109  RH  055%=      5-min Rain = 0
KPD2 110410Z 14003KT 20/11 A3022 RMK A01 T02020108  RH  055%=      5-min Rain = 0
KPD2 110411Z 15003KT 20/11 A3022 RMK A01 T02020109  RH  055%=      5-min Rain = 0
KPD2 110412Z 15003KT 20/11 A3023 RMK A01 T02020109  RH  055%=      5-min Rain = 0
KPD2 110413Z 15003KT 20/11 A3023 RMK A01 T02010109  RH  055%=      5-min Rain = 0
KPD2 110414Z 14002KT 20/11 A3023 RMK A01 T02010109  RH  055%=      5-min Rain = 0
KPD2 110415Z 14002KT 20/11 A3023 RMK A01 T02000108  RH  055%=      5-min Rain = 0
KPD2 110416Z 14002KT 20/11 A3023 RMK A01 T02000108  RH  055%=      5-min Rain = 0
KPD2 110417Z 15003KT 20/11 A3023 RMK A01 T02010108  RH  055%=      5-min Rain = 0
KPD2 110418Z 15003KT 20/11 A3023 RMK A01 T02000108  RH  055%=      5-min Rain = 0
KPD2 110419Z 15003KT 20/11 A3023 RMK A01 T02000109  RH  056%=      5-min Rain = 0
KPD2 110420Z 15004KT 20/11 A3023 RMK A01 T01990109  RH  056%=      5-min Rain = 0
KPD2 110421Z 15004KT 20/11 A3023 RMK A01 T01990109  RH  056%=      5-min Rain = 0
KPD2 110422Z 15004KT 20/11 A3023 RMK A01 T01990109  RH  056%=      5-min Rain = 0
KPD2 110423Z 15004KT 20/11 A3023 RMK A01 T01990108  RH  056%=      5-min Rain = 0
KPD2 110424Z 15004KT 20/11 A3023 RMK A01 T01990108  RH  056%=      5-min Rain = 0
KPD2 110425Z 15004KT 20/11 A3023 RMK A01 T01990108  RH  056%=      5-min Rain = 0
KPD2 110426Z 14004KT 20/11 A3023 RMK A01 T01990108  RH  056%=      5-min Rain = 0
KPD2 110427Z 14003KT 20/11 A3023 RMK A01 T01990108  RH  056%=      5-min Rain = 0
KPD2 110428Z 14003KT 20/11 A3023 RMK A01 T01990108  RH  056%=      5-min Rain = 0
KPD2 110429Z 14003KT 20/11 A3023 RMK A01 T01980108  RH  056%=      5-min Rain = 0
KPD2 110430Z 15004KT 20/11 A3023 RMK A01 T01970108  RH  056%=      5-min Rain = 0
KPD2 110431Z 14004KT 20/11 A3023 RMK A01 T01970108  RH  056%=      5-min Rain = 0
KPD2 110432Z 13003KT 20/11 A3023 RMK A01 T01970108  RH  056%=      5-min Rain = 0
KPD2 110433Z 13003KT 20/11 A3023 RMK A01 T01960108  RH  056%=      5-min Rain = 0
KPD2 110434Z 14003KT 20/11 A3023 RMK A01 T01960108  RH  057%=      5-min Rain = 0
KPD2 110435Z 14004KT 20/11 A3023 RMK A01 T01960107  RH  057%=      5-min Rain = 0
KPD2 110436Z 14004KT 20/11 A3023 RMK A01 T01960108  RH  057%=      5-min Rain = 0
KPD2 110437Z 13003KT 20/11 A3023 RMK A01 T01960108  RH  057%=      5-min Rain = 0
KPD2 110438Z 13003KT 20/11 A3023 RMK A01 T01960108  RH  057%=      5-min Rain = 0
KPD2 110439Z 13004KT 20/11 A3023 RMK A01 T01950108  RH  057%=      5-min Rain = 0
KPD2 110440Z 13004KT 20/11 A3023 RMK A01 T01950108  RH  057%=      5-min Rain = 0
KPD2 110441Z 13003KT 20/11 A3023 RMK A01 T01950107  RH  057%=      5-min Rain = 0
KPD2 110442Z 13004KT 20/11 A3023 RMK A01 T01950108  RH  057%=      5-min Rain = 0
KPD2 110443Z 13004KT 19/11 A3023 RMK A01 T01940107  RH  057%=      5-min Rain = 0
KPD2 110444Z 14003KT 19/11 A3023 RMK A01 T01940107  RH  057%=      5-min Rain = 0
KPD2 110445Z 14003KT 19/11 A3023 RMK A01 T01940107  RH  057%=      5-min Rain = 0
KPD2 110446Z 13003KT 19/11 A3023 RMK A01 T01940107  RH  057%=      5-min Rain = 0
KPD2 110447Z 13003KT 19/11 A3023 RMK A01 T01940107  RH  057%=      5-min Rain = 0
KPD2 110448Z 14004KT 19/11 A3023 RMK A01 T01940107  RH  057%=      5-min Rain = 0
KPD2 110449Z 12004KT 19/11 A3023 RMK A01 T01930107  RH  057%=      5-min Rain = 0
KPD2 110450Z 12004KT 19/11 A3023 RMK A01 T01940107  RH  057%=      5-min Rain = 0
KPD2 110451Z 12004KT 19/11 A3023 RMK A01 T01930107  RH  057%=      5-min Rain = 0
KPD2 110452Z 12005KT 19/11 A3023 RMK A01 T01930107  RH  057%=      5-min Rain = 0
KPD2 110453Z 12005KT 19/11 A3023 RMK A01 T01930107  RH  057%=      5-min Rain = 0
KPD2 110454Z 12005KT 19/11 A3023 RMK A01 T01930107  RH  057%=      5-min Rain = 0
KPD2 110455Z 12005KT 19/11 A3023 RMK A01 T01930107  RH  057%=      5-min Rain = 0
KPD2 110456Z 13004KT 19/11 A3023 RMK A01 T01920107  RH  058%=      5-min Rain = 0
KPD2 110457Z 13004KT 19/11 A3023 RMK A01 T01930107  RH  058%=      5-min Rain = 0
KPD2 110458Z 13004KT 19/11 A3023 RMK A01 T01920106  RH  057%=      5-min Rain = 0
KPD2 110459Z 13004KT 19/11 A3023 RMK A01 T01920106  RH  057%=      5-min Rain = 0

Page generated in 0.0818 seconds.